Observation data for Fort Lewis CO on 12/08/2018      Previous  Date  Next       Current Mesonet Observations  Soil Data  Daily Summary Page  Observations in Plain Language
KFL1 080600Z 03004KT M06/M07 A3024 RMK A01 T10551072  RH  088%=      5-min Rain = 0
KFL1 080601Z 03004KT M06/M07 A3024 RMK A01 T10551072  RH  088%=      5-min Rain = 0
KFL1 080602Z 03004KT M05/M07 A3024 RMK A01 T10531072  RH  087%=      5-min Rain = 0
KFL1 080603Z 02004KT M06/M08 A3024 RMK A01 T10551077  RH  084%=      5-min Rain = 0
KFL1 080604Z 02004KT M06/M08 A3024 RMK A01 T10591084  RH  083%=      5-min Rain = 0
KFL1 080605Z 02004KT M07/M09 A3024 RMK A01 T10661094  RH  081%=      5-min Rain = 0
KFL1 080606Z 02004KT M07/M10 A3024 RMK A01 T10711100  RH  080%=      5-min Rain = 0
KFL1 080607Z 02005KT M08/M10 A3024 RMK A01 T10751102  RH  081%=      5-min Rain = 0
KFL1 080608Z 02004KT M08/M10 A3024 RMK A01 T10791102  RH  083%=      5-min Rain = 0
KFL1 080609Z 02004KT M08/M10 A3024 RMK A01 T10801098  RH  086%=      5-min Rain = 0
KFL1 080610Z 01004KT M08/M10 A3024 RMK A01 T10791095  RH  088%=      5-min Rain = 0
KFL1 080611Z 01003KT M08/M10 A3024 RMK A01 T10791096  RH  088%=      5-min Rain = 0
KFL1 080612Z 02003KT M08/M10 A3024 RMK A01 T10811099  RH  087%=      5-min Rain = 0
KFL1 080613Z 01003KT M08/M10 A3024 RMK A01 T10841100  RH  088%=      5-min Rain = 0
KFL1 080614Z 01003KT M08/M10 A3024 RMK A01 T10841099  RH  089%=      5-min Rain = 0
KFL1 080615Z 01003KT M08/M10 A3024 RMK A01 T10831097  RH  090%=      5-min Rain = 0
KFL1 080616Z 00002KT M08/M10 A3024 RMK A01 T10841097  RH  090%=      5-min Rain = 0
KFL1 080617Z 00002KT M08/M10 A3024 RMK A01 T10831095  RH  091%=      5-min Rain = 0
KFL1 080618Z 00003KT M08/M10 A3024 RMK A01 T10831096  RH  090%=      5-min Rain = 0
KFL1 080619Z 36003KT M09/M10 A3024 RMK A01 T10851098  RH  090%=      5-min Rain = 0
KFL1 080620Z 36003KT M08/M10 A3024 RMK A01 T10831095  RH  091%=      5-min Rain = 0
KFL1 080621Z 36003KT M08/M10 A3024 RMK A01 T10831095  RH  091%=      5-min Rain = 0
KFL1 080622Z 35003KT M08/M10 A3024 RMK A01 T10841095  RH  092%=      5-min Rain = 0
KFL1 080623Z 35003KT M08/M09 A3024 RMK A01 T10811091  RH  092%=      5-min Rain = 0
KFL1 080624Z 35003KT M08/M09 A3025 RMK A01 T10811091  RH  093%=      5-min Rain = 0
KFL1 080625Z 35002KT M08/M09 A3025 RMK A01 T10811091  RH  092%=      5-min Rain = 0
KFL1 080626Z 34003KT M08/M09 A3025 RMK A01 T10811091  RH  092%=      5-min Rain = 0
KFL1 080627Z 34002KT M08/M09 A3025 RMK A01 T10811093  RH  091%=      5-min Rain = 0
KFL1 080628Z 34002KT M08/M09 A3025 RMK A01 T10831094  RH  091%=      5-min Rain = 0
KFL1 080629Z 35002KT M08/M09 A3025 RMK A01 T10791088  RH  093%=      5-min Rain = 0
KFL1 080630Z 35002KT M08/M09 A3024 RMK A01 T10771085  RH  094%=      5-min Rain = 0
KFL1 080631Z 36002KT M08/M09 A3024 RMK A01 T10791088  RH  093%=      5-min Rain = 0
KFL1 080632Z 36003KT M08/M09 A3024 RMK A01 T10791090  RH  092%=      5-min Rain = 0
KFL1 080633Z 00003KT M08/M09 A3025 RMK A01 T10801092  RH  091%=      5-min Rain = 0
KFL1 080634Z 00003KT M08/M09 A3025 RMK A01 T10791089  RH  093%=      5-min Rain = 0
KFL1 080635Z 01004KT M08/M09 A3025 RMK A01 T10771085  RH  094%=      5-min Rain = 0
KFL1 080636Z 01005KT M07/M08 A3025 RMK A01 T10731080  RH  095%=      5-min Rain = 0
KFL1 080637Z 01004KT M07/M07 A3025 RMK A01 T10681073  RH  096%=      5-min Rain = 0
KFL1 080638Z 01004KT M07/M07 A3025 RMK A01 T10661072  RH  096%=      5-min Rain = 0
KFL1 080639Z 01004KT M07/M07 A3025 RMK A01 T10651070  RH  096%=      5-min Rain = 0
KFL1 080640Z 00003KT M06/M07 A3025 RMK A01 T10631069  RH  095%=      5-min Rain = 0
KFL1 080641Z 35003KT M06/M07 A3024 RMK A01 T10641072  RH  094%=      5-min Rain = 0
KFL1 080642Z 35002KT M06/M07 A3024 RMK A01 T10631072  RH  094%=      5-min Rain = 0
KFL1 080643Z 34002KT M07/M08 A3024 RMK A01 T10661078  RH  091%=      5-min Rain = 0
KFL1 080644Z 34002KT M07/M09 A3024 RMK A01 T10701086  RH  088%=      5-min Rain = 0
KFL1 080645Z 35002KT M08/M09 A3024 RMK A01 T10761093  RH  088%=      5-min Rain = 0
KFL1 080646Z 00002KT M08/M09 A3024 RMK A01 T10761089  RH  091%=      5-min Rain = 0
KFL1 080647Z 01004KT M07/M08 A3024 RMK A01 T10711079  RH  094%=      5-min Rain = 0
KFL1 080648Z 02005KT M07/M07 A3024 RMK A01 T10661071  RH  096%=      5-min Rain = 0
KFL1 080649Z 02005KT M06/M07 A3024 RMK A01 T10611065  RH  097%=      5-min Rain = 0
KFL1 080650Z 02005KT M06/M06 A3024 RMK A01 T10581061  RH  098%=      5-min Rain = 0
KFL1 080651Z 02005KT M06/M06 A3024 RMK A01 T10591062  RH  098%=      5-min Rain = 0
KFL1 080652Z 02005KT M06/M06 A3024 RMK A01 T10561061  RH  097%=      5-min Rain = 0
KFL1 080653Z 02004KT M06/M06 A3024 RMK A01 T10571062  RH  097%=      5-min Rain = 0
KFL1 080654Z 02004KT M06/M06 A3024 RMK A01 T10561060  RH  097%=      5-min Rain = 0
KFL1 080655Z 03004KT M06/M06 A3024 RMK A01 T10561060  RH  097%=      5-min Rain = 0
KFL1 080656Z 03004KT M06/M06 A3024 RMK A01 T10551060  RH  096%=      5-min Rain = 0
KFL1 080657Z 04004KT M05/M06 A3024 RMK A01 T10541060  RH  096%=      5-min Rain = 0
KFL1 080658Z 04004KT M06/M07 A3024 RMK A01 T10561065  RH  094%=      5-min Rain = 0
KFL1 080659Z 04004KT M06/M07 A3024 RMK A01 T10601072  RH  091%=      5-min Rain = 0
KFL1 080700Z 03004KT M06/M08 A3024 RMK A01 T10631078  RH  090%=      5-min Rain = 0
KFL1 080701Z 04004KT M07/M08 A3024 RMK A01 T10661080  RH  090%=      5-min Rain = 0
KFL1 080702Z 04005KT M07/M08 A3024 RMK A01 T10661078  RH  091%=      5-min Rain = 0
KFL1 080703Z 04005KT M07/M08 A3024 RMK A01 T10651075  RH  093%=      5-min Rain = 0
KFL1 080704Z 04005KT M06/M07 A3024 RMK A01 T10621071  RH  094%=      5-min Rain = 0
KFL1 080705Z 04005KT M06/M07 A3024 RMK A01 T10611069  RH  094%=      5-min Rain = 0
KFL1 080706Z 03005KT M06/M07 A3024 RMK A01 T10601067  RH  094%=      5-min Rain = 0
KFL1 080707Z 03005KT M06/M07 A3024 RMK A01 T10591067  RH  094%=      5-min Rain = 0
KFL1 080708Z 03005KT M06/M08 A3024 RMK A01 T10631077  RH  090%=      5-min Rain = 0
KFL1 080709Z 03004KT M07/M09 A3024 RMK A01 T10711092  RH  085%=      5-min Rain = 0
KFL1 080710Z 02005KT M08/M10 A3024 RMK A01 T10771096  RH  086%=      5-min Rain = 0
KFL1 080711Z 02005KT M08/M09 A3024 RMK A01 T10781094  RH  089%=      5-min Rain = 0
KFL1 080712Z 02006KT M08/M09 A3024 RMK A01 T10781093  RH  090%=      5-min Rain = 0
KFL1 080713Z 02006KT M08/M09 A3024 RMK A01 T10791092  RH  090%=      5-min Rain = 0
KFL1 080714Z 02005KT M08/M09 A3024 RMK A01 T10791091  RH  091%=      5-min Rain = 0
KFL1 080715Z 02005KT M08/M09 A3024 RMK A01 T10791091  RH  091%=      5-min Rain = 0
KFL1 080716Z 02004KT M08/M09 A3024 RMK A01 T10791091  RH  091%=      5-min Rain = 0
KFL1 080717Z 02004KT M08/M09 A3024 RMK A01 T10811094  RH  091%=      5-min Rain = 0
KFL1 080718Z 02004KT M08/M10 A3024 RMK A01 T10841097  RH  090%=      5-min Rain = 0
KFL1 080719Z 02004KT M08/M10 A3024 RMK A01 T10831096  RH  091%=      5-min Rain = 0
KFL1 080720Z 02005KT M08/M10 A3024 RMK A01 T10841096  RH  091%=      5-min Rain = 0
KFL1 080721Z 03004KT M08/M09 A3024 RMK A01 T10821092  RH  093%=      5-min Rain = 0
KFL1 080722Z 03004KT M08/M08 A3024 RMK A01 T10751082  RH  095%=      5-min Rain = 0
KFL1 080723Z 03004KT M07/M07 A3024 RMK A01 T10691074  RH  096%=      5-min Rain = 0
KFL1 080724Z 03004KT M07/M07 A3024 RMK A01 T10681072  RH  097%=      5-min Rain = 0
KFL1 080725Z 04004KT M07/M07 A3024 RMK A01 T10661071  RH  097%=      5-min Rain = 0
KFL1 080726Z 04004KT M07/M07 A3023 RMK A01 T10661071  RH  096%=      5-min Rain = 0
KFL1 080727Z 03004KT M07/M07 A3023 RMK A01 T10661074  RH  095%=      5-min Rain = 0
KFL1 080728Z 04004KT M07/M08 A3023 RMK A01 T10681075  RH  094%=      5-min Rain = 0
KFL1 080729Z 03004KT M07/M08 A3023 RMK A01 T10691077  RH  094%=      5-min Rain = 0
KFL1 080730Z 03004KT M07/M08 A3023 RMK A01 T10681078  RH  093%=      5-min Rain = 0
KFL1 080731Z 03004KT M07/M09 A3023 RMK A01 T10721086  RH  090%=      5-min Rain = 0
KFL1 080732Z 03004KT M08/M09 A3023 RMK A01 T10761091  RH  089%=      5-min Rain = 0
KFL1 080733Z 03004KT M08/M09 A3023 RMK A01 T10781092  RH  090%=      5-min Rain = 0
KFL1 080734Z 02005KT M08/M09 A3023 RMK A01 T10771090  RH  091%=      5-min Rain = 0
KFL1 080735Z 02006KT M08/M09 A3023 RMK A01 T10761087  RH  092%=      5-min Rain = 0
KFL1 080736Z 02005KT M08/M09 A3023 RMK A01 T10791090  RH  092%=      5-min Rain = 0
KFL1 080737Z 02005KT M08/M09 A3023 RMK A01 T10801093  RH  091%=      5-min Rain = 0
KFL1 080738Z 02005KT M08/M09 A3023 RMK A01 T10801091  RH  091%=      5-min Rain = 0
KFL1 080739Z 02005KT M08/M09 A3023 RMK A01 T10801091  RH  092%=      5-min Rain = 0
KFL1 080740Z 02004KT M08/M09 A3023 RMK A01 T10791089  RH  093%=      5-min Rain = 0
KFL1 080741Z 02004KT M08/M09 A3023 RMK A01 T10811092  RH  092%=      5-min Rain = 0
KFL1 080742Z 02004KT M08/M09 A3023 RMK A01 T10821094  RH  091%=      5-min Rain = 0
KFL1 080743Z 02004KT M08/M10 A3023 RMK A01 T10831095  RH  091%=      5-min Rain = 0
KFL1 080744Z 03005KT M08/M09 A3023 RMK A01 T10831093  RH  092%=      5-min Rain = 0
KFL1 080745Z 03005KT M08/M09 A3023 RMK A01 T10811090  RH  093%=      5-min Rain = 0
KFL1 080746Z 03004KT M08/M09 A3023 RMK A01 T10801088  RH  094%=      5-min Rain = 0
KFL1 080747Z 03004KT M08/M08 A3023 RMK A01 T10771084  RH  095%=      5-min Rain = 0
KFL1 080748Z 04004KT M07/M08 A3023 RMK A01 T10741080  RH  096%=      5-min Rain = 0
KFL1 080749Z 04004KT M07/M08 A3023 RMK A01 T10711076  RH  096%=      5-min Rain = 0
KFL1 080750Z 04004KT M07/M08 A3023 RMK A01 T10721077  RH  097%=      5-min Rain = 0
KFL1 080751Z 04005KT M07/M08 A3023 RMK A01 T10711076  RH  096%=      5-min Rain = 0
KFL1 080752Z 04005KT M07/M08 A3023 RMK A01 T10701076  RH  095%=      5-min Rain = 0
KFL1 080753Z 04005KT M07/M08 A3023 RMK A01 T10701077  RH  095%=      5-min Rain = 0
KFL1 080754Z 04005KT M07/M08 A3023 RMK A01 T10691076  RH  095%=      5-min Rain = 0
KFL1 080755Z 03005KT M07/M08 A3023 RMK A01 T10671075  RH  095%=      5-min Rain = 0
KFL1 080756Z 03005KT M07/M08 A3023 RMK A01 T10671077  RH  093%=      5-min Rain = 0
KFL1 080757Z 04005KT M07/M08 A3023 RMK A01 T10681078  RH  092%=      5-min Rain = 0
KFL1 080758Z 04005KT M07/M08 A3023 RMK A01 T10691080  RH  092%=      5-min Rain = 0
KFL1 080759Z 04005KT M07/M08 A3023 RMK A01 T10701082  RH  091%=      5-min Rain = 0
KFL1 080800Z 04006KT M07/M08 A3023 RMK A01 T10681078  RH  093%=      5-min Rain = 0
KFL1 080801Z 04006KT M07/M07 A3023 RMK A01 T10651072  RH  095%=      5-min Rain = 0
KFL1 080802Z 04007KT M06/M07 A3023 RMK A01 T10621068  RH  095%=      5-min Rain = 0
KFL1 080803Z 04007KT M06/M07 A3023 RMK A01 T10591065  RH  095%=      5-min Rain = 0
KFL1 080804Z 04007KT M06/M07 A3023 RMK A01 T10571065  RH  094%=      5-min Rain = 0
KFL1 080805Z 04007KT M06/M07 A3023 RMK A01 T10571067  RH  093%=      5-min Rain = 0
KFL1 080806Z 04007KT M06/M07 A3023 RMK A01 T10571069  RH  091%=      5-min Rain = 0
KFL1 080807Z 04007KT M05/M07 A3023 RMK A01 T10531067  RH  090%=      5-min Rain = 0
KFL1 080808Z 04008KT M05/M07 A3024 RMK A01 T10541071  RH  088%=      5-min Rain = 0
KFL1 080809Z 04008KT M05/M07 A3024 RMK A01 T10531072  RH  087%=      5-min Rain = 0
KFL1 080810Z 04007KT M05/M07 A3024 RMK A01 T10521072  RH  086%=      5-min Rain = 0
KFL1 080811Z 04007KT M05/M07 A3024 RMK A01 T10501070  RH  086%=      5-min Rain = 0
KFL1 080812Z 03007KT M05/M07 A3024 RMK A01 T10501069  RH  086%=      5-min Rain = 0
KFL1 080813Z 03007KT M05/M07 A3024 RMK A01 T10491069  RH  086%=      5-min Rain = 0
KFL1 080814Z 03007KT M05/M08 A3024 RMK A01 T10521077  RH  082%=      5-min Rain = 0
KFL1 080815Z 03006KT M06/M09 A3024 RMK A01 T10601090  RH  079%=      5-min Rain = 0
KFL1 080816Z 03006KT M07/M10 A3024 RMK A01 T10691101  RH  078%=      5-min Rain = 0
KFL1 080817Z 03006KT M08/M11 A3024 RMK A01 T10761106  RH  079%=      5-min Rain = 0
KFL1 080818Z 03006KT M08/M11 A3024 RMK A01 T10811108  RH  081%=      5-min Rain = 0
KFL1 080819Z 03006KT M08/M11 A3024 RMK A01 T10831106  RH  084%=      5-min Rain = 0
KFL1 080820Z 03006KT M08/M10 A3024 RMK A01 T10831102  RH  086%=      5-min Rain = 0
KFL1 080821Z 03006KT M08/M10 A3024 RMK A01 T10821099  RH  087%=      5-min Rain = 0
KFL1 080822Z 03006KT M08/M10 A3024 RMK A01 T10831102  RH  087%=      5-min Rain = 0
KFL1 080823Z 03006KT M09/M10 A3024 RMK A01 T10851103  RH  087%=      5-min Rain = 0
KFL1 080824Z 03006KT M09/M10 A3024 RMK A01 T10851103  RH  087%=      5-min Rain = 0
KFL1 080825Z 03006KT M09/M10 A3024 RMK A01 T10851102  RH  088%=      5-min Rain = 0
KFL1 080826Z 03006KT M08/M10 A3024 RMK A01 T10841098  RH  089%=      5-min Rain = 0
KFL1 080827Z 03005KT M08/M09 A3024 RMK A01 T10801092  RH  091%=      5-min Rain = 0
KFL1 080828Z 04004KT M07/M09 A3024 RMK A01 T10741085  RH  092%=      5-min Rain = 0
KFL1 080829Z 03004KT M07/M08 A3024 RMK A01 T10711081  RH  093%=      5-min Rain = 0
KFL1 080830Z 04005KT M07/M08 A3024 RMK A01 T10671076  RH  093%=      5-min Rain = 0
KFL1 080831Z 04004KT M06/M07 A3024 RMK A01 T10641073  RH  094%=      5-min Rain = 0
KFL1 080832Z 03004KT M06/M07 A3024 RMK A01 T10621070  RH  094%=      5-min Rain = 0
KFL1 080833Z 03004KT M06/M07 A3024 RMK A01 T10611071  RH  093%=      5-min Rain = 0
KFL1 080834Z 04005KT M06/M07 A3024 RMK A01 T10601071  RH  092%=      5-min Rain = 0
KFL1 080835Z 04005KT M06/M07 A3024 RMK A01 T10591071  RH  091%=      5-min Rain = 0
KFL1 080836Z 04006KT M06/M07 A3024 RMK A01 T10591071  RH  091%=      5-min Rain = 0
KFL1 080837Z 04006KT M06/M07 A3024 RMK A01 T10591072  RH  090%=      5-min Rain = 0
KFL1 080838Z 03006KT M06/M07 A3024 RMK A01 T10571071  RH  090%=      5-min Rain = 0
KFL1 080839Z 03006KT M06/M07 A3024 RMK A01 T10561070  RH  090%=      5-min Rain = 0
KFL1 080840Z 02005KT M06/M07 A3024 RMK A01 T10561072  RH  089%=      5-min Rain = 0
KFL1 080841Z 03006KT M06/M07 A3024 RMK A01 T10561073  RH  088%=      5-min Rain = 0
KFL1 080842Z 02006KT M06/M08 A3024 RMK A01 T10571075  RH  087%=      5-min Rain = 0
KFL1 080843Z 02007KT M06/M09 A3024 RMK A01 T10631086  RH  083%=      5-min Rain = 0
KFL1 080844Z 02007KT M07/M10 A3024 RMK A01 T10721100  RH  080%=      5-min Rain = 0
KFL1 080845Z 02007KT M08/M10 A3024 RMK A01 T10761103  RH  081%=      5-min Rain = 0
KFL1 080846Z 01006KT M08/M10 A3024 RMK A01 T10791102  RH  084%=      5-min Rain = 0
KFL1 080847Z 01005KT M08/M10 A3024 RMK A01 T10811102  RH  085%=      5-min Rain = 0
KFL1 080848Z 01005KT M08/M10 A3025 RMK A01 T10831101  RH  087%=      5-min Rain = 0
KFL1 080849Z 01005KT M08/M10 A3025 RMK A01 T10811096  RH  089%=      5-min Rain = 0
KFL1 080850Z 00004KT M08/M10 A3025 RMK A01 T10821098  RH  088%=      5-min Rain = 0
KFL1 080851Z 00004KT M09/M10 A3025 RMK A01 T10851102  RH  088%=      5-min Rain = 0
KFL1 080852Z 00004KT M09/M11 A3025 RMK A01 T10881106  RH  087%=      5-min Rain = 0
KFL1 080853Z 36004KT M09/M10 A3025 RMK A01 T10881104  RH  088%=      5-min Rain = 0
KFL1 080854Z 36004KT M09/M11 A3025 RMK A01 T10921107  RH  089%=      5-min Rain = 0
KFL1 080855Z 00004KT M09/M11 A3025 RMK A01 T10931108  RH  089%=      5-min Rain = 0
KFL1 080856Z 00005KT M09/M10 A3025 RMK A01 T10911104  RH  091%=      5-min Rain = 0
KFL1 080857Z 02005KT M09/M09 A3025 RMK A01 T10851093  RH  094%=      5-min Rain = 0
KFL1 080858Z 03005KT M08/M08 A3025 RMK A01 T10791084  RH  096%=      5-min Rain = 0
KFL1 080859Z 03004KT M07/M08 A3025 RMK A01 T10711075  RH  097%=      5-min Rain = 0
KFL1 080900Z 03004KT M07/M07 A3025 RMK A01 T10701074  RH  097%=      5-min Rain = 0
KFL1 080901Z 02004KT M07/M07 A3025 RMK A01 T10681072  RH  097%=      5-min Rain = 0
KFL1 080902Z 02004KT M07/M07 A3025 RMK A01 T10681074  RH  096%=      5-min Rain = 0
KFL1 080903Z 02005KT M07/M07 A3025 RMK A01 T10661073  RH  095%=      5-min Rain = 0
KFL1 080904Z 03004KT M07/M07 A3025 RMK A01 T10661074  RH  094%=      5-min Rain = 0
KFL1 080905Z 02004KT M07/M08 A3025 RMK A01 T10661076  RH  093%=      5-min Rain = 0
KFL1 080906Z 02005KT M07/M08 A3025 RMK A01 T10651075  RH  093%=      5-min Rain = 0
KFL1 080907Z 02005KT M06/M07 A3025 RMK A01 T10631072  RH  093%=      5-min Rain = 0
KFL1 080908Z 01005KT M06/M07 A3025 RMK A01 T10641072  RH  094%=      5-min Rain = 0
KFL1 080909Z 00005KT M06/M07 A3025 RMK A01 T10641073  RH  094%=      5-min Rain = 0
KFL1 080910Z 36005KT M07/M07 A3025 RMK A01 T10651073  RH  094%=      5-min Rain = 0
KFL1 080911Z 36004KT M07/M07 A3025 RMK A01 T10651073  RH  094%=      5-min Rain = 0
KFL1 080912Z 35004KT M07/M07 A3025 RMK A01 T10651074  RH  093%=      5-min Rain = 0
KFL1 080913Z 36004KT M07/M08 A3025 RMK A01 T10681076  RH  094%=      5-min Rain = 0
KFL1 080914Z 01004KT M07/M08 A3025 RMK A01 T10681076  RH  094%=      5-min Rain = 0
KFL1 080915Z 01004KT M07/M07 A3025 RMK A01 T10671074  RH  095%=      5-min Rain = 0
KFL1 080916Z 01004KT M06/M07 A3025 RMK A01 T10641070  RH  096%=      5-min Rain = 0
KFL1 080917Z 00004KT M06/M07 A3025 RMK A01 T10641070  RH  096%=      5-min Rain = 0
KFL1 080918Z 35004KT M06/M07 A3025 RMK A01 T10641068  RH  097%=      5-min Rain = 0
KFL1 080919Z 36004KT M06/M07 A3025 RMK A01 T10641068  RH  097%=      5-min Rain = 0
KFL1 080920Z 35004KT M06/M07 A3025 RMK A01 T10641069  RH  097%=      5-min Rain = 0
KFL1 080921Z 34004KT M06/M07 A3025 RMK A01 T10621067  RH  097%=      5-min Rain = 0
KFL1 080922Z 32003KT M07/M07 A3025 RMK A01 T10651071  RH  096%=      5-min Rain = 0
KFL1 080923Z 31003KT M07/M08 A3025 RMK A01 T10691077  RH  095%=      5-min Rain = 0
KFL1 080924Z 31003KT M08/M09 A3025 RMK A01 T10761086  RH  092%=      5-min Rain = 0
KFL1 080925Z 32003KT M08/M09 A3025 RMK A01 T10791091  RH  091%=      5-min Rain = 0
KFL1 080926Z 32003KT M08/M10 A3025 RMK A01 T10831095  RH  091%=      5-min Rain = 0
KFL1 080927Z 32003KT M08/M09 A3025 RMK A01 T10831094  RH  092%=      5-min Rain = 0
KFL1 080928Z 32003KT M08/M09 A3025 RMK A01 T10791086  RH  095%=      5-min Rain = 0
KFL1 080929Z 33003KT M08/M08 A3025 RMK A01 T10751079  RH  097%=      5-min Rain = 0
KFL1 080930Z 33002KT M07/M08 A3025 RMK A01 T10741077  RH  097%=      5-min Rain = 0
KFL1 080931Z 34003KT M07/M07 A3025 RMK A01 T10711074  RH  098%=      5-min Rain = 0
KFL1 080932Z 36003KT M07/M07 A3025 RMK A01 T10681070  RH  099%=      5-min Rain = 0
KFL1 080933Z 00004KT M07/M07 A3025 RMK A01 T10651067  RH  099%=      5-min Rain = 0
KFL1 080934Z 00003KT M07/M07 A3025 RMK A01 T10651066  RH  099%=      5-min Rain = 0
KFL1 080935Z 01003KT M07/M07 A3025 RMK A01 T10651067  RH  099%=      5-min Rain = 0
KFL1 080936Z 01004KT M07/M07 A3025 RMK A01 T10661068  RH  098%=      5-min Rain = 0
KFL1 080937Z 01004KT M06/M07 A3025 RMK A01 T10631066  RH  098%=      5-min Rain = 0
KFL1 080938Z 01004KT M06/M07 A3025 RMK A01 T10641066  RH  098%=      5-min Rain = 0
KFL1 080939Z 01004KT M07/M07 A3025 RMK A01 T10651067  RH  098%=      5-min Rain = 0
KFL1 080940Z 01003KT M06/M07 A3025 RMK A01 T10621065  RH  098%=      5-min Rain = 0
KFL1 080941Z 02003KT M06/M07 A3025 RMK A01 T10641067  RH  098%=      5-min Rain = 0
KFL1 080942Z 02003KT M06/M07 A3025 RMK A01 T10631067  RH  097%=      5-min Rain = 0
KFL1 080943Z 02003KT M06/M07 A3025 RMK A01 T10641068  RH  097%=      5-min Rain = 0
KFL1 080944Z 02003KT M06/M07 A3025 RMK A01 T10631067  RH  097%=      5-min Rain = 0
KFL1 080945Z 02003KT M06/M07 A3025 RMK A01 T10631068  RH  097%=      5-min Rain = 0
KFL1 080946Z 03003KT M06/M07 A3025 RMK A01 T10631068  RH  097%=      5-min Rain = 0
KFL1 080947Z 04003KT M06/M07 A3024 RMK A01 T10611065  RH  097%=      5-min Rain = 0
KFL1 080948Z 05003KT M06/M07 A3024 RMK A01 T10621066  RH  097%=      5-min Rain = 0
KFL1 080949Z 05003KT M06/M06 A3024 RMK A01 T10601064  RH  097%=      5-min Rain = 0
KFL1 080950Z 05003KT M06/M06 A3024 RMK A01 T10591063  RH  097%=      5-min Rain = 0
KFL1 080951Z 05003KT M06/M07 A3024 RMK A01 T10621067  RH  097%=      5-min Rain = 0
KFL1 080952Z 05003KT M07/M07 A3024 RMK A01 T10651071  RH  095%=      5-min Rain = 0
KFL1 080953Z 05003KT M07/M07 A3024 RMK A01 T10661073  RH  095%=      5-min Rain = 0
KFL1 080954Z 05003KT M07/M07 A3024 RMK A01 T10681074  RH  096%=      5-min Rain = 0
KFL1 080955Z 04003KT M07/M07 A3024 RMK A01 T10681073  RH  096%=      5-min Rain = 0
KFL1 080956Z 04002KT M07/M08 A3024 RMK A01 T10701076  RH  096%=      5-min Rain = 0
KFL1 080957Z 04002KT M07/M08 A3024 RMK A01 T10721078  RH  095%=      5-min Rain = 0
KFL1 080958Z 04002KT M08/M08 A3024 RMK A01 T10751082  RH  095%=      5-min Rain = 0
KFL1 080959Z 04002KT M08/M08 A3024 RMK A01 T10751082  RH  095%=      5-min Rain = 0
KFL1 081000Z 03003KT M07/M08 A3024 RMK A01 T10731078  RH  096%=      5-min Rain = 0
KFL1 081001Z 03003KT M07/M07 A3024 RMK A01 T10701074  RH  097%=      5-min Rain = 0
KFL1 081002Z 03003KT M07/M08 A3024 RMK A01 T10711075  RH  097%=      5-min Rain = 0
KFL1 081003Z 04003KT M07/M08 A3024 RMK A01 T10711075  RH  097%=      5-min Rain = 0
KFL1 081004Z 04003KT M07/M08 A3024 RMK A01 T10741079  RH  097%=      5-min Rain = 0
KFL1 081005Z 03003KT M08/M09 A3024 RMK A01 T10791085  RH  095%=      5-min Rain = 0
KFL1 081006Z 03004KT M08/M09 A3024 RMK A01 T10791085  RH  095%=      5-min Rain = 0
KFL1 081007Z 03004KT M08/M09 A3024 RMK A01 T10821089  RH  095%=      5-min Rain = 0
KFL1 081008Z 03004KT M08/M09 A3024 RMK A01 T10831091  RH  094%=      5-min Rain = 0
KFL1 081009Z 03004KT M09/M09 A3024 RMK A01 T10861094  RH  094%=      5-min Rain = 0
KFL1 081010Z 03004KT M09/M10 A3024 RMK A01 T10881097  RH  093%=      5-min Rain = 0
KFL1 081011Z 03005KT M09/M10 A3024 RMK A01 T10891097  RH  094%=      5-min Rain = 0
KFL1 081012Z 03004KT M09/M10 A3024 RMK A01 T10881096  RH  094%=      5-min Rain = 0
KFL1 081013Z 03004KT M09/M10 A3024 RMK A01 T10901098  RH  094%=      5-min Rain = 0
KFL1 081014Z 03004KT M09/M10 A3024 RMK A01 T10911099  RH  094%=      5-min Rain = 0
KFL1 081015Z 03005KT M09/M10 A3024 RMK A01 T10921100  RH  094%=      5-min Rain = 0
KFL1 081016Z 03004KT M09/M10 A3024 RMK A01 T10911098  RH  094%=      5-min Rain = 0
KFL1 081017Z 03005KT M09/M10 A3024 RMK A01 T10921099  RH  095%=      5-min Rain = 0
KFL1 081018Z 03005KT M09/M10 A3023 RMK A01 T10911097  RH  095%=      5-min Rain = 0
KFL1 081019Z 03005KT M09/M10 A3023 RMK A01 T10891095  RH  096%=      5-min Rain = 0
KFL1 081020Z 03005KT M09/M10 A3024 RMK A01 T10911097  RH  096%=      5-min Rain = 0
KFL1 081021Z 03005KT M09/M10 A3024 RMK A01 T10891095  RH  096%=      5-min Rain = 0
KFL1 081022Z 03005KT M09/M10 A3024 RMK A01 T10891095  RH  096%=      5-min Rain = 0
KFL1 081023Z 03005KT M09/M10 A3024 RMK A01 T10901096  RH  096%=      5-min Rain = 0
KFL1 081024Z 03005KT M09/M10 A3024 RMK A01 T10901096  RH  096%=      5-min Rain = 0
KFL1 081025Z 03005KT M09/M10 A3024 RMK A01 T10891095  RH  096%=      5-min Rain = 0
KFL1 081026Z 04005KT M09/M10 A3024 RMK A01 T10901095  RH  096%=      5-min Rain = 0
KFL1 081027Z 04005KT M09/M09 A3024 RMK A01 T10851090  RH  096%=      5-min Rain = 0
KFL1 081028Z 04006KT M08/M09 A3024 RMK A01 T10811085  RH  097%=      5-min Rain = 0
KFL1 081029Z 04006KT M07/M08 A3023 RMK A01 T10721075  RH  098%=      5-min Rain = 0
KFL1 081030Z 03006KT M06/M06 A3023 RMK A01 T10631064  RH  099%=      5-min Rain = 0
KFL1 081031Z 03006KT M06/M06 A3023 RMK A01 T10601060  RH  100%=      5-min Rain = 0
KFL1 081032Z 04006KT M06/M06 A3023 RMK A01 T10561057  RH  100%=      5-min Rain = 0
KFL1 081033Z 03006KT M05/M06 A3023 RMK A01 T10541055  RH  100%=      5-min Rain = 0
KFL1 081034Z 03005KT M05/M06 A3023 RMK A01 T10541056  RH  099%=      5-min Rain = 0
KFL1 081035Z 03005KT M05/M06 A3023 RMK A01 T10531055  RH  098%=      5-min Rain = 0
KFL1 081036Z 03006KT M05/M06 A3023 RMK A01 T10541058  RH  098%=      5-min Rain = 0
KFL1 081037Z 03006KT M06/M06 A3023 RMK A01 T10571063  RH  096%=      5-min Rain = 0
KFL1 081038Z 03005KT M06/M07 A3023 RMK A01 T10631073  RH  093%=      5-min Rain = 0
KFL1 081039Z 03005KT M07/M08 A3023 RMK A01 T10691082  RH  090%=      5-min Rain = 0
KFL1 081040Z 03005KT M07/M09 A3023 RMK A01 T10741090  RH  089%=      5-min Rain = 0
KFL1 081041Z 03006KT M08/M09 A3023 RMK A01 T10761092  RH  088%=      5-min Rain = 0
KFL1 081042Z 04006KT M08/M10 A3023 RMK A01 T10811097  RH  088%=      5-min Rain = 0
KFL1 081043Z 04006KT M08/M10 A3023 RMK A01 T10821097  RH  089%=      5-min Rain = 0
KFL1 081044Z 03005KT M08/M09 A3023 RMK A01 T10801094  RH  090%=      5-min Rain = 0
KFL1 081045Z 04005KT M08/M09 A3023 RMK A01 T10801092  RH  091%=      5-min Rain = 0
KFL1 081046Z 03006KT M08/M09 A3023 RMK A01 T10781089  RH  092%=      5-min Rain = 0
KFL1 081047Z 03006KT M07/M08 A3023 RMK A01 T10731079  RH  095%=      5-min Rain = 0
KFL1 081048Z 03006KT M07/M07 A3023 RMK A01 T10681073  RH  096%=      5-min Rain = 0
KFL1 081049Z 03006KT M07/M08 A3023 RMK A01 T10691076  RH  094%=      5-min Rain = 0
KFL1 081050Z 03006KT M07/M08 A3023 RMK A01 T10711083  RH  091%=      5-min Rain = 0
KFL1 081051Z 03006KT M08/M09 A3023 RMK A01 T10761092  RH  089%=      5-min Rain = 0
KFL1 081052Z 03005KT M08/M10 A3023 RMK A01 T10821101  RH  086%=      5-min Rain = 0
KFL1 081053Z 04004KT M09/M11 A3023 RMK A01 T10871107  RH  086%=      5-min Rain = 0
KFL1 081054Z 03004KT M09/M11 A3023 RMK A01 T10891107  RH  087%=      5-min Rain = 0
KFL1 081055Z 03005KT M09/M10 A3023 RMK A01 T10881104  RH  089%=      5-min Rain = 0
KFL1 081056Z 04004KT M09/M10 A3023 RMK A01 T10891104  RH  089%=      5-min Rain = 0
KFL1 081057Z 04004KT M09/M10 A3023 RMK A01 T10901104  RH  090%=      5-min Rain = 0
KFL1 081058Z 03005KT M09/M11 A3023 RMK A01 T10911105  RH  090%=      5-min Rain = 0
KFL1 081059Z 03004KT M09/M10 A3023 RMK A01 T10901103  RH  090%=      5-min Rain = 0
KFL1 081100Z 03004KT M09/M10 A3023 RMK A01 T10911104  RH  090%=      5-min Rain = 0
KFL1 081101Z 03003KT M09/M10 A3023 RMK A01 T10901103  RH  090%=      5-min Rain = 0
KFL1 081102Z 03003KT M09/M10 A3024 RMK A01 T10901103  RH  090%=      5-min Rain = 0
KFL1 081103Z 03004KT M09/M10 A3024 RMK A01 T10911104  RH  090%=      5-min Rain = 0
KFL1 081104Z 03005KT M09/M10 A3024 RMK A01 T10911104  RH  091%=      5-min Rain = 0
KFL1 081105Z 03005KT M09/M10 A3023 RMK A01 T10911102  RH  091%=      5-min Rain = 0
KFL1 081106Z 04004KT M09/M10 A3023 RMK A01 T10891100  RH  092%=      5-min Rain = 0
KFL1 081107Z 04004KT M09/M09 A3023 RMK A01 T10851094  RH  093%=      5-min Rain = 0
KFL1 081108Z 04005KT M08/M09 A3023 RMK A01 T10801087  RH  095%=      5-min Rain = 0
KFL1 081109Z 03005KT M08/M08 A3023 RMK A01 T10771083  RH  095%=      5-min Rain = 0
KFL1 081110Z 03004KT M08/M08 A3024 RMK A01 T10751081  RH  095%=      5-min Rain = 0
KFL1 081111Z 03004KT M07/M08 A3024 RMK A01 T10721079  RH  095%=      5-min Rain = 0
KFL1 081112Z 04005KT M07/M08 A3024 RMK A01 T10721080  RH  094%=      5-min Rain = 0
KFL1 081113Z 04006KT M07/M08 A3024 RMK A01 T10721082  RH  093%=      5-min Rain = 0
KFL1 081114Z 04007KT M07/M08 A3024 RMK A01 T10701080  RH  093%=      5-min Rain = 0
KFL1 081115Z 04008KT M07/M08 A3024 RMK A01 T10681078  RH  093%=      5-min Rain = 0
KFL1 081116Z 04008KT M07/M08 A3024 RMK A01 T10661076  RH  092%=      5-min Rain = 0
KFL1 081117Z 04008KT M06/M08 A3024 RMK A01 T10641077  RH  091%=      5-min Rain = 0
KFL1 081118Z 04007KT M06/M08 A3024 RMK A01 T10621077  RH  089%=      5-min Rain = 0
KFL1 081119Z 04007KT M06/M08 A3024 RMK A01 T10601077  RH  088%=      5-min Rain = 0
KFL1 081120Z 04007KT M06/M08 A3024 RMK A01 T10601079  RH  086%=      5-min Rain = 0
KFL1 081121Z 04006KT M06/M08 A3024 RMK A01 T10591080  RH  086%=      5-min Rain = 0
KFL1 081122Z 03006KT M06/M08 A3024 RMK A01 T10591080  RH  085%=      5-min Rain = 0
KFL1 081123Z 03005KT M06/M09 A3024 RMK A01 T10631089  RH  082%=      5-min Rain = 0
KFL1 081124Z 03004KT M08/M11 A3024 RMK A01 T10761109  RH  077%=      5-min Rain = 0
KFL1 081125Z 03005KT M09/M12 A3024 RMK A01 T10861119  RH  077%=      5-min Rain = 0
KFL1 081126Z 02005KT M09/M12 A3024 RMK A01 T10921121  RH  080%=      5-min Rain = 0
KFL1 081127Z 02006KT M09/M12 A3024 RMK A01 T10931117  RH  083%=      5-min Rain = 0
KFL1 081128Z 02006KT M10/M12 A3024 RMK A01 T10951115  RH  085%=      5-min Rain = 0
KFL1 081129Z 02006KT M10/M11 A3024 RMK A01 T10951112  RH  087%=      5-min Rain = 0
KFL1 081130Z 02005KT M10/M11 A3024 RMK A01 T10951111  RH  088%=      5-min Rain = 0
KFL1 081131Z 02005KT M10/M11 A3024 RMK A01 T10951110  RH  089%=      5-min Rain = 0
KFL1 081132Z 02005KT M10/M11 A3024 RMK A01 T10951109  RH  090%=      5-min Rain = 0
KFL1 081133Z 02005KT M09/M11 A3024 RMK A01 T10931105  RH  091%=      5-min Rain = 0
KFL1 081134Z 02006KT M09/M10 A3024 RMK A01 T10911102  RH  092%=      5-min Rain = 0
KFL1 081135Z 01006KT M09/M10 A3024 RMK A01 T10891099  RH  092%=      5-min Rain = 0
KFL1 081136Z 01006KT M09/M10 A3024 RMK A01 T10851095  RH  093%=      5-min Rain = 0
KFL1 081137Z 02005KT M09/M10 A3024 RMK A01 T10851095  RH  093%=      5-min Rain = 0
KFL1 081138Z 01005KT M09/M10 A3024 RMK A01 T10861097  RH  092%=      5-min Rain = 0
KFL1 081139Z 01005KT M09/M10 A3024 RMK A01 T10861098  RH  091%=      5-min Rain = 0
KFL1 081140Z 02005KT M09/M10 A3024 RMK A01 T10851096  RH  092%=      5-min Rain = 0
KFL1 081141Z 02005KT M08/M09 A3024 RMK A01 T10841093  RH  093%=      5-min Rain = 0
KFL1 081142Z 02004KT M08/M09 A3024 RMK A01 T10801087  RH  095%=      5-min Rain = 0
KFL1 081143Z 02004KT M08/M08 A3024 RMK A01 T10771084  RH  095%=      5-min Rain = 0
KFL1 081144Z 02004KT M08/M08 A3024 RMK A01 T10761082  RH  096%=      5-min Rain = 0
KFL1 081145Z 02004KT M07/M08 A3024 RMK A01 T10741080  RH  096%=      5-min Rain = 0
KFL1 081146Z 03004KT M07/M08 A3024 RMK A01 T10721077  RH  096%=      5-min Rain = 0
KFL1 081147Z 03004KT M07/M08 A3024 RMK A01 T10731081  RH  094%=      5-min Rain = 0
KFL1 081148Z 03004KT M08/M09 A3024 RMK A01 T10771088  RH  092%=      5-min Rain = 0
KFL1 081149Z 03003KT M08/M09 A3024 RMK A01 T10801094  RH  090%=      5-min Rain = 0
KFL1 081150Z 03003KT M08/M10 A3024 RMK A01 T10821096  RH  089%=      5-min Rain = 0
KFL1 081151Z 02003KT M09/M10 A3024 RMK A01 T10861100  RH  089%=      5-min Rain = 0
KFL1 081152Z 02004KT M09/M10 A3024 RMK A01 T10871100  RH  090%=      5-min Rain = 0
KFL1 081153Z 02004KT M09/M10 A3024 RMK A01 T10881101  RH  090%=      5-min Rain = 0
KFL1 081154Z 02004KT M09/M11 A3024 RMK A01 T10941110  RH  088%=      5-min Rain = 0
KFL1 081155Z 03004KT M10/M11 A3024 RMK A01 T10951112  RH  087%=      5-min Rain = 0
KFL1 081156Z 03004KT M10/M11 A3024 RMK A01 T10961110  RH  090%=      5-min Rain = 0
KFL1 081157Z 03004KT M10/M11 A3024 RMK A01 T10961107  RH  092%=      5-min Rain = 0
KFL1 081158Z 02004KT M09/M10 A3025 RMK A01 T10931102  RH  093%=      5-min Rain = 0
KFL1 081159Z 02003KT M09/M10 A3025 RMK A01 T10921101  RH  093%=      5-min Rain = 0
KFL1 081200Z 01003KT M10/M11 A3025 RMK A01 T10961107  RH  092%=      5-min Rain = 0
KFL1 081201Z 00004KT M10/M12 A3025 RMK A01 T11011117  RH  088%=      5-min Rain = 0
KFL1 081202Z 36004KT M10/M12 A3025 RMK A01 T11041121  RH  088%=      5-min Rain = 0
KFL1 081203Z 34004KT M11/M12 A3025 RMK A01 T11071123  RH  088%=      5-min Rain = 0
KFL1 081204Z 32002KT M11/M12 A3025 RMK A01 T11081123  RH  089%=      5-min Rain = 0
KFL1 081205Z 29002KT M10/M11 A3025 RMK A01 T11011111  RH  093%=      5-min Rain = 0
KFL1 081206Z 29001KT M09/M10 A3025 RMK A01 T10941100  RH  096%=      5-min Rain = 0
KFL1 081207Z 29002KT M09/M10 A3025 RMK A01 T10921096  RH  097%=      5-min Rain = 0
KFL1 081208Z 32001KT M10/M10 A3025 RMK A01 T10951099  RH  097%=      5-min Rain = 0
KFL1 081209Z 02002KT M09/M10 A3025 RMK A01 T10941099  RH  096%=      5-min Rain = 0
KFL1 081210Z 36002KT M09/M09 A3025 RMK A01 T10881091  RH  097%=      5-min Rain = 0
KFL1 081211Z 33002KT M09/M09 A3025 RMK A01 T10871091  RH  098%=      5-min Rain = 0
KFL1 081212Z 32002KT M09/M10 A3025 RMK A01 T10901096  RH  096%=      5-min Rain = 0
KFL1 081213Z 34001KT M09/M10 A3025 RMK A01 T10941103  RH  094%=      5-min Rain = 0
KFL1 081214Z 36002KT M10/M10 A3025 RMK A01 T10951103  RH  094%=      5-min Rain = 0
KFL1 081215Z 36003KT M10/M10 A3025 RMK A01 T10951104  RH  093%=      5-min Rain = 0
KFL1 081216Z 34002KT M10/M11 A3025 RMK A01 T10961106  RH  092%=      5-min Rain = 0
KFL1 081217Z 33001KT M10/M11 A3025 RMK A01 T10971108  RH  092%=      5-min Rain = 0
KFL1 081218Z 33001KT M09/M10 A3025 RMK A01 T10941103  RH  093%=      5-min Rain = 0
KFL1 081219Z 34002KT M09/M10 A3025 RMK A01 T10941103  RH  094%=      5-min Rain = 0
KFL1 081220Z 34002KT M09/M10 A3025 RMK A01 T10941102  RH  094%=      5-min Rain = 0
KFL1 081221Z 34002KT M09/M10 A3025 RMK A01 T10901097  RH  095%=      5-min Rain = 0
KFL1 081222Z 35002KT M09/M09 A3025 RMK A01 T10871092  RH  096%=      5-min Rain = 0
KFL1 081223Z 01002KT M08/M09 A3025 RMK A01 T10831087  RH  097%=      5-min Rain = 0
KFL1 081224Z 01003KT M09/M09 A3025 RMK A01 T10851092  RH  095%=      5-min Rain = 0
KFL1 081225Z 02004KT M09/M09 A3025 RMK A01 T10871094  RH  095%=      5-min Rain = 0
KFL1 081226Z 02003KT M08/M09 A3025 RMK A01 T10831089  RH  096%=      5-min Rain = 0
KFL1 081227Z 01004KT M08/M09 A3025 RMK A01 T10801085  RH  097%=      5-min Rain = 0
KFL1 081228Z 01003KT M08/M08 A3025 RMK A01 T10771080  RH  098%=      5-min Rain = 0
KFL1 081229Z 01003KT M07/M08 A3025 RMK A01 T10741077  RH  098%=      5-min Rain = 0
KFL1 081230Z 01002KT M07/M08 A3025 RMK A01 T10731075  RH  098%=      5-min Rain = 0
KFL1 081231Z 01003KT M07/M08 A3025 RMK A01 T10741077  RH  097%=      5-min Rain = 0
KFL1 081232Z 01002KT M08/M08 A3025 RMK A01 T10781083  RH  096%=      5-min Rain = 0
KFL1 081233Z 01003KT M08/M09 A3025 RMK A01 T10801088  RH  094%=      5-min Rain = 0
KFL1 081234Z 01003KT M08/M09 A3025 RMK A01 T10821089  RH  094%=      5-min Rain = 0
KFL1 081235Z 01004KT M08/M09 A3025 RMK A01 T10821090  RH  094%=      5-min Rain = 0
KFL1 081236Z 01004KT M08/M09 A3025 RMK A01 T10821090  RH  094%=      5-min Rain = 0
KFL1 081237Z 01004KT M08/M09 A3025 RMK A01 T10831091  RH  094%=      5-min Rain = 0
KFL1 081238Z 01004KT M08/M09 A3025 RMK A01 T10831091  RH  094%=      5-min Rain = 0
KFL1 081239Z 01004KT M08/M09 A3025 RMK A01 T10841092  RH  094%=      5-min Rain = 0
KFL1 081240Z 36004KT M08/M09 A3025 RMK A01 T10821090  RH  094%=      5-min Rain = 0
KFL1 081241Z 35004KT M08/M08 A3025 RMK A01 T10771082  RH  096%=      5-min Rain = 0
KFL1 081242Z 35004KT M07/M08 A3025 RMK A01 T10741078  RH  097%=      5-min Rain = 0
KFL1 081243Z 35004KT M07/M08 A3025 RMK A01 T10711075  RH  097%=      5-min Rain = 0
KFL1 081244Z 34004KT M07/M07 A3025 RMK A01 T10681072  RH  097%=      5-min Rain = 0
KFL1 081245Z 35004KT M07/M07 A3025 RMK A01 T10671070  RH  097%=      5-min Rain = 0
KFL1 081246Z 35004KT M06/M07 A3025 RMK A01 T10641067  RH  098%=      5-min Rain = 0
KFL1 081247Z 35003KT M06/M06 A3025 RMK A01 T10611064  RH  098%=      5-min Rain = 0
KFL1 081248Z 35003KT M06/M06 A3025 RMK A01 T10601063  RH  098%=      5-min Rain = 0
KFL1 081249Z 35003KT M06/M06 A3025 RMK A01 T10591063  RH  098%=      5-min Rain = 0
KFL1 081250Z 36003KT M06/M06 A3025 RMK A01 T10591062  RH  097%=      5-min Rain = 0
KFL1 081251Z 00003KT M06/M06 A3025 RMK A01 T10581062  RH  097%=      5-min Rain = 0
KFL1 081252Z 01003KT M06/M06 A3025 RMK A01 T10571062  RH  097%=      5-min Rain = 0
KFL1 081253Z 01003KT M06/M06 A3025 RMK A01 T10591064  RH  096%=      5-min Rain = 0
KFL1 081254Z 02003KT M06/M06 A3025 RMK A01 T10591064  RH  096%=      5-min Rain = 0
KFL1 081255Z 02003KT M06/M06 A3025 RMK A01 T10571062  RH  096%=      5-min Rain = 0
KFL1 081256Z 03003KT M06/M06 A3025 RMK A01 T10581063  RH  096%=      5-min Rain = 0
KFL1 081257Z 04003KT M06/M06 A3025 RMK A01 T10571063  RH  096%=      5-min Rain = 0
KFL1 081258Z 04005KT M06/M06 A3025 RMK A01 T10561063  RH  095%=      5-min Rain = 0
KFL1 081259Z 05005KT M06/M06 A3026 RMK A01 T10551063  RH  094%=      5-min Rain = 0
KFL1 081300Z 05005KT M06/M07 A3026 RMK A01 T10571067  RH  093%=      5-min Rain = 0
KFL1 081301Z 04005KT M06/M07 A3026 RMK A01 T10571069  RH  092%=      5-min Rain = 0
KFL1 081302Z 04004KT M06/M07 A3026 RMK A01 T10571070  RH  091%=      5-min Rain = 0
KFL1 081303Z 05005KT M06/M07 A3026 RMK A01 T10571069  RH  091%=      5-min Rain = 0
KFL1 081304Z 05005KT M06/M07 A3026 RMK A01 T10581071  RH  091%=      5-min Rain = 0
KFL1 081305Z 05006KT M06/M07 A3026 RMK A01 T10571070  RH  090%=      5-min Rain = 0
KFL1 081306Z 05006KT M06/M07 A3026 RMK A01 T10561070  RH  090%=      5-min Rain = 0
KFL1 081307Z 05006KT M06/M07 A3026 RMK A01 T10571072  RH  089%=      5-min Rain = 0
KFL1 081308Z 05006KT M06/M07 A3026 RMK A01 T10571073  RH  089%=      5-min Rain = 0
KFL1 081309Z 05006KT M06/M07 A3026 RMK A01 T10571074  RH  088%=      5-min Rain = 0
KFL1 081310Z 05006KT M06/M07 A3026 RMK A01 T10571074  RH  088%=      5-min Rain = 0
KFL1 081311Z 05006KT M06/M08 A3026 RMK A01 T10581075  RH  088%=      5-min Rain = 0
KFL1 081312Z 05006KT M06/M08 A3026 RMK A01 T10571075  RH  087%=      5-min Rain = 0
KFL1 081313Z 05006KT M06/M08 A3026 RMK A01 T10571076  RH  087%=      5-min Rain = 0
KFL1 081314Z 04006KT M06/M07 A3026 RMK A01 T10551074  RH  086%=      5-min Rain = 0
KFL1 081315Z 04006KT M05/M07 A3026 RMK A01 T10541074  RH  086%=      5-min Rain = 0
KFL1 081316Z 05006KT M06/M08 A3026 RMK A01 T10551075  RH  086%=      5-min Rain = 0
KFL1 081317Z 05006KT M05/M07 A3026 RMK A01 T10531074  RH  085%=      5-min Rain = 0
KFL1 081318Z 05006KT M06/M08 A3026 RMK A01 T10551076  RH  085%=      5-min Rain = 0
KFL1 081319Z 04005KT M05/M07 A3026 RMK A01 T10521074  RH  085%=      5-min Rain = 0
KFL1 081320Z 05006KT M05/M08 A3026 RMK A01 T10531076  RH  084%=      5-min Rain = 0
KFL1 081321Z 04006KT M05/M08 A3026 RMK A01 T10521075  RH  084%=      5-min Rain = 0
KFL1 081322Z 04006KT M05/M08 A3026 RMK A01 T10521076  RH  084%=      5-min Rain = 0
KFL1 081323Z 04006KT M05/M08 A3026 RMK A01 T10521076  RH  083%=      5-min Rain = 0
KFL1 081324Z 05006KT M05/M08 A3026 RMK A01 T10501075  RH  083%=      5-min Rain = 0
KFL1 081325Z 04005KT M05/M08 A3026 RMK A01 T10511076  RH  083%=      5-min Rain = 0
KFL1 081326Z 05005KT M05/M08 A3026 RMK A01 T10521076  RH  083%=      5-min Rain = 0
KFL1 081327Z 05006KT M05/M08 A3026 RMK A01 T10531078  RH  083%=      5-min Rain = 0
KFL1 081328Z 05005KT M05/M08 A3026 RMK A01 T10531078  RH  083%=      5-min Rain = 0
KFL1 081329Z 04006KT M05/M08 A3026 RMK A01 T10531078  RH  083%=      5-min Rain = 0
KFL1 081330Z 04006KT M05/M08 A3026 RMK A01 T10521077  RH  083%=      5-min Rain = 0
KFL1 081331Z 04006KT M05/M08 A3026 RMK A01 T10531077  RH  083%=      5-min Rain = 0
KFL1 081332Z 04006KT M05/M08 A3026 RMK A01 T10531077  RH  084%=      5-min Rain = 0
KFL1 081333Z 04006KT M05/M08 A3026 RMK A01 T10531076  RH  084%=      5-min Rain = 0
KFL1 081334Z 04007KT M05/M08 A3026 RMK A01 T10541078  RH  083%=      5-min Rain = 0
KFL1 081335Z 04006KT M05/M08 A3026 RMK A01 T10531077  RH  083%=      5-min Rain = 0
KFL1 081336Z 05006KT M05/M08 A3026 RMK A01 T10521075  RH  084%=      5-min Rain = 0
KFL1 081337Z 05006KT M05/M07 A3026 RMK A01 T10511073  RH  084%=      5-min Rain = 0
KFL1 081338Z 05005KT M05/M07 A3026 RMK A01 T10511073  RH  085%=      5-min Rain = 0
KFL1 081339Z 05005KT M05/M07 A3027 RMK A01 T10491072  RH  084%=      5-min Rain = 0
KFL1 081340Z 04005KT M05/M07 A3026 RMK A01 T10501073  RH  084%=      5-min Rain = 0
KFL1 081341Z 05005KT M05/M07 A3026 RMK A01 T10501072  RH  085%=      5-min Rain = 0
KFL1 081342Z 05005KT M05/M07 A3026 RMK A01 T10491071  RH  084%=      5-min Rain = 0
KFL1 081343Z 05006KT M05/M07 A3027 RMK A01 T10491071  RH  084%=      5-min Rain = 0
KFL1 081344Z 05006KT M05/M07 A3027 RMK A01 T10501074  RH  083%=      5-min Rain = 0
KFL1 081345Z 04006KT M05/M08 A3027 RMK A01 T10521078  RH  082%=      5-min Rain = 0
KFL1 081346Z 04006KT M05/M08 A3027 RMK A01 T10521079  RH  082%=      5-min Rain = 0
KFL1 081347Z 05006KT M05/M08 A3027 RMK A01 T10531079  RH  082%=      5-min Rain = 0
KFL1 081348Z 05006KT M05/M08 A3027 RMK A01 T10531078  RH  083%=      5-min Rain = 0
KFL1 081349Z 05005KT M05/M08 A3027 RMK A01 T10531076  RH  083%=      5-min Rain = 0
KFL1 081350Z 05005KT M05/M07 A3027 RMK A01 T10501073  RH  084%=      5-min Rain = 0
KFL1 081351Z 06005KT M05/M07 A3027 RMK A01 T10501072  RH  084%=      5-min Rain = 0
KFL1 081352Z 05005KT M05/M07 A3027 RMK A01 T10501071  RH  085%=      5-min Rain = 0
KFL1 081353Z 05005KT M05/M07 A3027 RMK A01 T10481070  RH  085%=      5-min Rain = 0
KFL1 081354Z 04005KT M05/M07 A3027 RMK A01 T10471069  RH  085%=      5-min Rain = 0
KFL1 081355Z 04005KT M05/M07 A3027 RMK A01 T10461067  RH  085%=      5-min Rain = 0
KFL1 081356Z 04005KT M05/M07 A3027 RMK A01 T10451066  RH  085%=      5-min Rain = 0
KFL1 081357Z 04004KT M05/M07 A3027 RMK A01 T10461067  RH  085%=      5-min Rain = 0
KFL1 081358Z 04005KT M05/M07 A3027 RMK A01 T10451067  RH  085%=      5-min Rain = 0
KFL1 081359Z 05004KT M04/M07 A3027 RMK A01 T10441065  RH  085%=      5-min Rain = 0
KFL1 081400Z 04005KT M05/M07 A3027 RMK A01 T10461067  RH  085%=      5-min Rain = 0
KFL1 081401Z 05004KT M04/M07 A3027 RMK A01 T10441065  RH  085%=      5-min Rain = 0
KFL1 081402Z 05005KT M04/M07 A3027 RMK A01 T10431065  RH  085%=      5-min Rain = 0
KFL1 081403Z 05005KT M04/M07 A3027 RMK A01 T10441066  RH  085%=      5-min Rain = 0
KFL1 081404Z 04004KT M04/M07 A3027 RMK A01 T10441065  RH  085%=      5-min Rain = 0
KFL1 081405Z 05005KT M04/M06 A3027 RMK A01 T10431064  RH  085%=      5-min Rain = 0
KFL1 081406Z 05005KT M04/M07 A3027 RMK A01 T10441066  RH  085%=      5-min Rain = 0
KFL1 081407Z 05004KT M04/M07 A3027 RMK A01 T10441066  RH  085%=      5-min Rain = 0
KFL1 081408Z 05005KT M04/M07 A3027 RMK A01 T10441066  RH  085%=      5-min Rain = 0
KFL1 081409Z 05004KT M04/M07 A3027 RMK A01 T10441066  RH  085%=      5-min Rain = 0
KFL1 081410Z 05005KT M04/M07 A3027 RMK A01 T10431065  RH  085%=      5-min Rain = 0
KFL1 081411Z 05004KT M04/M06 A3027 RMK A01 T10421064  RH  085%=      5-min Rain = 0
KFL1 081412Z 05004KT M04/M07 A3028 RMK A01 T10441066  RH  085%=      5-min Rain = 0
KFL1 081413Z 05005KT M04/M07 A3028 RMK A01 T10441066  RH  085%=      5-min Rain = 0
KFL1 081414Z 05004KT M04/M07 A3028 RMK A01 T10441066  RH  085%=      5-min Rain = 0
KFL1 081415Z 05004KT M05/M07 A3028 RMK A01 T10451067  RH  084%=      5-min Rain = 0
KFL1 081416Z 05005KT M04/M07 A3028 RMK A01 T10441067  RH  084%=      5-min Rain = 0
KFL1 081417Z 05004KT M05/M07 A3028 RMK A01 T10461068  RH  084%=      5-min Rain = 0
KFL1 081418Z 05005KT M05/M07 A3028 RMK A01 T10461068  RH  085%=      5-min Rain = 0
KFL1 081419Z 05004KT M05/M07 A3028 RMK A01 T10461068  RH  084%=      5-min Rain = 0
KFL1 081420Z 05005KT M05/M07 A3028 RMK A01 T10471069  RH  084%=      5-min Rain = 0
KFL1 081421Z 05005KT M05/M07 A3028 RMK A01 T10471069  RH  085%=      5-min Rain = 0
KFL1 081422Z 05004KT M05/M07 A3028 RMK A01 T10461067  RH  085%=      5-min Rain = 0
KFL1 081423Z 04004KT M05/M07 A3028 RMK A01 T10451066  RH  085%=      5-min Rain = 0
KFL1 081424Z 04005KT M05/M07 A3028 RMK A01 T10461067  RH  085%=      5-min Rain = 0
KFL1 081425Z 04005KT M05/M07 A3028 RMK A01 T10451067  RH  085%=      5-min Rain = 0
KFL1 081426Z 04004KT M04/M07 A3028 RMK A01 T10441066  RH  085%=      5-min Rain = 0
KFL1 081427Z 05004KT M04/M06 A3028 RMK A01 T10421064  RH  085%=      5-min Rain = 0
KFL1 081428Z 04005KT M04/M06 A3028 RMK A01 T10431064  RH  085%=      5-min Rain = 0
KFL1 081429Z 04004KT M04/M07 A3028 RMK A01 T10421065  RH  085%=      5-min Rain = 0
KFL1 081430Z 03004KT M04/M06 A3028 RMK A01 T10411063  RH  084%=      5-min Rain = 0
KFL1 081431Z 03004KT M04/M06 A3028 RMK A01 T10401063  RH  084%=      5-min Rain = 0
KFL1 081432Z 04005KT M04/M06 A3028 RMK A01 T10391062  RH  084%=      5-min Rain = 0
KFL1 081433Z 04004KT M04/M06 A3028 RMK A01 T10381061  RH  084%=      5-min Rain = 0
KFL1 081434Z 05004KT M04/M06 A3028 RMK A01 T10391062  RH  084%=      5-min Rain = 0
KFL1 081435Z 04004KT M04/M06 A3028 RMK A01 T10391062  RH  084%=      5-min Rain = 0
KFL1 081436Z 04004KT M04/M06 A3028 RMK A01 T10371061  RH  084%=      5-min Rain = 0
KFL1 081437Z 05003KT M04/M06 A3028 RMK A01 T10371061  RH  083%=      5-min Rain = 0
KFL1 081438Z 04004KT M04/M06 A3028 RMK A01 T10371062  RH  083%=      5-min Rain = 0
KFL1 081439Z 05004KT M04/M06 A3028 RMK A01 T10361061  RH  083%=      5-min Rain = 0
KFL1 081440Z 04004KT M04/M06 A3028 RMK A01 T10351060  RH  083%=      5-min Rain = 0
KFL1 081441Z 04004KT M04/M06 A3029 RMK A01 T10351061  RH  082%=      5-min Rain = 0
KFL1 081442Z 04004KT M03/M06 A3029 RMK A01 T10341061  RH  082%=      5-min Rain = 0
KFL1 081443Z 04005KT M03/M06 A3029 RMK A01 T10341062  RH  081%=      5-min Rain = 0
KFL1 081444Z 04005KT M04/M06 A3029 RMK A01 T10351063  RH  081%=      5-min Rain = 0
KFL1 081445Z 04005KT M03/M06 A3029 RMK A01 T10341062  RH  081%=      5-min Rain = 0
KFL1 081446Z 05005KT M04/M06 A3029 RMK A01 T10351063  RH  081%=      5-min Rain = 0
KFL1 081447Z 04006KT M04/M06 A3029 RMK A01 T10351063  RH  081%=      5-min Rain = 0
KFL1 081448Z 05005KT M04/M06 A3029 RMK A01 T10351063  RH  081%=      5-min Rain = 0
KFL1 081449Z 05006KT M03/M06 A3029 RMK A01 T10341062  RH  081%=      5-min Rain = 0
KFL1 081450Z 05006KT M03/M06 A3029 RMK A01 T10341062  RH  081%=      5-min Rain = 0
KFL1 081451Z 04007KT M03/M06 A3029 RMK A01 T10321061  RH  080%=      5-min Rain = 0
KFL1 081452Z 04006KT M03/M06 A3029 RMK A01 T10321062  RH  080%=      5-min Rain = 0
KFL1 081453Z 04006KT M03/M06 A3029 RMK A01 T10291059  RH  080%=      5-min Rain = 0
KFL1 081454Z 05005KT M03/M06 A3029 RMK A01 T10291060  RH  080%=      5-min Rain = 0
KFL1 081455Z 06005KT M03/M06 A3029 RMK A01 T10291060  RH  079%=      5-min Rain = 0
KFL1 081456Z 05005KT M03/M06 A3029 RMK A01 T10271059  RH  079%=      5-min Rain = 0
KFL1 081457Z 05005KT M03/M06 A3029 RMK A01 T10281061  RH  078%=      5-min Rain = 0
KFL1 081458Z 05005KT M03/M06 A3029 RMK A01 T10271061  RH  078%=      5-min Rain = 0
KFL1 081459Z 05005KT M03/M06 A3029 RMK A01 T10261060  RH  078%=      5-min Rain = 0
KFL1 081500Z 05005KT M03/M06 A3029 RMK A01 T10271061  RH  077%=      5-min Rain = 0
KFL1 081501Z 05005KT M03/M06 A3029 RMK A01 T10271062  RH  077%=      5-min Rain = 0
KFL1 081502Z 05004KT M03/M06 A3029 RMK A01 T10271062  RH  077%=      5-min Rain = 0
KFL1 081503Z 05004KT M03/M06 A3029 RMK A01 T10251060  RH  077%=      5-min Rain = 0
KFL1 081504Z 05004KT M03/M06 A3029 RMK A01 T10251061  RH  077%=      5-min Rain = 0
KFL1 081505Z 05005KT M03/M06 A3029 RMK A01 T10261061  RH  077%=      5-min Rain = 0
KFL1 081506Z 05004KT M03/M06 A3029 RMK A01 T10251060  RH  077%=      5-min Rain = 0
KFL1 081507Z 04004KT M03/M06 A3029 RMK A01 T10261062  RH  076%=      5-min Rain = 0
KFL1 081508Z 04003KT M03/M06 A3029 RMK A01 T10261062  RH  076%=      5-min Rain = 0
KFL1 081509Z 05003KT M03/M06 A3029 RMK A01 T10271062  RH  076%=      5-min Rain = 0
KFL1 081510Z 05003KT M03/M06 A3029 RMK A01 T10261062  RH  076%=      5-min Rain = 0
KFL1 081511Z 05003KT M03/M06 A3029 RMK A01 T10261061  RH  076%=      5-min Rain = 0
KFL1 081512Z 04003KT M03/M06 A3029 RMK A01 T10261062  RH  076%=      5-min Rain = 0
KFL1 081513Z 04003KT M03/M06 A3029 RMK A01 T10251061  RH  076%=      5-min Rain = 0
KFL1 081514Z 05003KT M03/M06 A3029 RMK A01 T10261063  RH  076%=      5-min Rain = 0
KFL1 081515Z 04003KT M03/M06 A3029 RMK A01 T10261062  RH  076%=      5-min Rain = 0
KFL1 081516Z 04002KT M03/M06 A3029 RMK A01 T10251061  RH  076%=      5-min Rain = 0
KFL1 081517Z 04003KT M02/M06 A3029 RMK A01 T10241061  RH  076%=      5-min Rain = 0
KFL1 081518Z 04003KT M03/M07 A3029 RMK A01 T10251065  RH  074%=      5-min Rain = 0
KFL1 081519Z 05003KT M03/M07 A3029 RMK A01 T10291071  RH  073%=      5-min Rain = 0
KFL1 081520Z 05002KT M03/M07 A3029 RMK A01 T10321072  RH  074%=      5-min Rain = 0
KFL1 081521Z 05003KT M03/M07 A3029 RMK A01 T10341070  RH  076%=      5-min Rain = 0
KFL1 081522Z 05002KT M03/M07 A3029 RMK A01 T10321066  RH  077%=      5-min Rain = 0
KFL1 081523Z 06003KT M03/M07 A3029 RMK A01 T10321068  RH  076%=      5-min Rain = 0
KFL1 081524Z 06002KT M03/M07 A3029 RMK A01 T10341071  RH  075%=      5-min Rain = 0
KFL1 081525Z 06003KT M03/M07 A3029 RMK A01 T10341069  RH  077%=      5-min Rain = 0
KFL1 081526Z 05003KT M03/M07 A3029 RMK A01 T10321066  RH  077%=      5-min Rain = 0
KFL1 081527Z 04003KT M03/M07 A3029 RMK A01 T10321066  RH  077%=      5-min Rain = 0
KFL1 081528Z 04003KT M03/M06 A303 RMK A01 T10311064  RH  078%=      5-min Rain = 0
KFL1 081529Z 03002KT M03/M07 A303 RMK A01 T10321066  RH  077%=      5-min Rain = 0
KFL1 081530Z 03002KT M03/M07 A303 RMK A01 T10311067  RH  076%=      5-min Rain = 0
KFL1 081531Z 06002KT M03/M07 A3029 RMK A01 T10331069  RH  076%=      5-min Rain = 0
KFL1 081532Z 06002KT M03/M07 A3029 RMK A01 T10341070  RH  076%=      5-min Rain = 0
KFL1 081533Z 07002KT M03/M07 A3029 RMK A01 T10331068  RH  077%=      5-min Rain = 0
KFL1 081534Z 07002KT M03/M07 A3029 RMK A01 T10321066  RH  077%=      5-min Rain = 0
KFL1 081535Z 06002KT M03/M06 A303 RMK A01 T10301063  RH  078%=      5-min Rain = 0
KFL1 081536Z 07001KT M03/M06 A303 RMK A01 T10261061  RH  077%=      5-min Rain = 0
KFL1 081537Z 06002KT M03/M06 A303 RMK A01 T10251064  RH  075%=      5-min Rain = 0
KFL1 081538Z 04002KT M03/M07 A303 RMK A01 T10261065  RH  074%=      5-min Rain = 0
KFL1 081539Z 04002KT M03/M06 A303 RMK A01 T10251064  RH  075%=      5-min Rain = 0
KFL1 081540Z 07002KT M03/M06 A303 RMK A01 T10251063  RH  075%=      5-min Rain = 0
KFL1 081541Z 07003KT M02/M06 A303 RMK A01 T10221061  RH  075%=      5-min Rain = 0
KFL1 081542Z 07003KT M02/M06 A303 RMK A01 T10211061  RH  074%=      5-min Rain = 0
KFL1 081543Z 06002KT M02/M06 A303 RMK A01 T10191059  RH  074%=      5-min Rain = 0
KFL1 081544Z 05003KT M02/M06 A303 RMK A01 T10171059  RH  073%=      5-min Rain = 0
KFL1 081545Z 05003KT M02/M06 A303 RMK A01 T10171060  RH  072%=      5-min Rain = 0
KFL1 081546Z 05003KT M02/M06 A303 RMK A01 T10151059  RH  072%=      5-min Rain = 0
KFL1 081547Z 05003KT M02/M06 A303 RMK A01 T10151060  RH  072%=      5-min Rain = 0
KFL1 081548Z 06003KT M02/M06 A303 RMK A01 T10151060  RH  071%=      5-min Rain = 0
KFL1 081549Z 06004KT M02/M06 A303 RMK A01 T10151060  RH  071%=      5-min Rain = 0
KFL1 081550Z 06003KT M01/M06 A303 RMK A01 T10141060  RH  071%=      5-min Rain = 0
KFL1 081551Z 06003KT M01/M06 A303 RMK A01 T10141060  RH  071%=      5-min Rain = 0
KFL1 081552Z 06004KT M01/M06 A303 RMK A01 T10141061  RH  070%=      5-min Rain = 0
KFL1 081553Z 06004KT M01/M06 A303 RMK A01 T10141060  RH  070%=      5-min Rain = 0
KFL1 081554Z 06004KT M01/M06 A303 RMK A01 T10141061  RH  070%=      5-min Rain = 0
KFL1 081555Z 05003KT M01/M06 A303 RMK A01 T10131061  RH  070%=      5-min Rain = 0
KFL1 081556Z 06003KT M01/M06 A303 RMK A01 T10131060  RH  070%=      5-min Rain = 0
KFL1 081557Z 06003KT M01/M06 A303 RMK A01 T10101059  RH  070%=      5-min Rain = 0
KFL1 081558Z 06002KT M01/M06 A303 RMK A01 T10111061  RH  069%=      5-min Rain = 0
KFL1 081559Z 07003KT M01/M06 A303 RMK A01 T10111061  RH  069%=      5-min Rain = 0
KFL1 081600Z 06002KT M01/M06 A303 RMK A01 T10111062  RH  069%=      5-min Rain = 0
KFL1 081601Z 05003KT M01/M06 A303 RMK A01 T10091060  RH  069%=      5-min Rain = 0
KFL1 081602Z 05003KT M01/M06 A303 RMK A01 T10101060  RH  069%=      5-min Rain = 0
KFL1 081603Z 07003KT M01/M06 A303 RMK A01 T10091059  RH  069%=      5-min Rain = 0
KFL1 081604Z 07003KT M01/M06 A303 RMK A01 T10091060  RH  068%=      5-min Rain = 0
KFL1 081605Z 06004KT M01/M06 A303 RMK A01 T10081059  RH  068%=      5-min Rain = 0
KFL1 081606Z 05004KT M01/M06 A303 RMK A01 T10081059  RH  069%=      5-min Rain = 0
KFL1 081607Z 06003KT M01/M06 A303 RMK A01 T10091059  RH  069%=      5-min Rain = 0
KFL1 081608Z 06003KT M01/M06 A303 RMK A01 T10081058  RH  069%=      5-min Rain = 0
KFL1 081609Z 06002KT M01/M06 A303 RMK A01 T10061056  RH  068%=      5-min Rain = 0
KFL1 081610Z 04003KT M01/M06 A303 RMK A01 T10061057  RH  068%=      5-min Rain = 0
KFL1 081611Z 05003KT M01/M06 A303 RMK A01 T10061057  RH  068%=      5-min Rain = 0
KFL1 081612Z 06003KT M01/M06 A303 RMK A01 T10051056  RH  068%=      5-min Rain = 0
KFL1 081613Z 07004KT M00/M06 A303 RMK A01 T10041056  RH  068%=      5-min Rain = 0
KFL1 081614Z 06003KT M00/M06 A303 RMK A01 T10031055  RH  068%=      5-min Rain = 0
KFL1 081615Z 06003KT M00/M06 A303 RMK A01 T10041055  RH  069%=      5-min Rain = 0
KFL1 081616Z 07003KT M00/M05 A303 RMK A01 T10031053  RH  069%=      5-min Rain = 0
KFL1 081617Z 06003KT M00/M05 A3031 RMK A01 T10031052  RH  069%=      5-min Rain = 0
KFL1 081618Z 05003KT M00/M05 A3031 RMK A01 T10041052  RH  070%=      5-min Rain = 0
KFL1 081619Z 05003KT M00/M05 A3031 RMK A01 T10031050  RH  070%=      5-min Rain = 0
KFL1 081620Z 05003KT M00/M05 A3031 RMK A01 T10041050  RH  071%=      5-min Rain = 0
KFL1 081621Z 06002KT M00/M05 A3031 RMK A01 T10041050  RH  071%=      5-min Rain = 0
KFL1 081622Z 04003KT M00/M05 A3031 RMK A01 T10031049  RH  071%=      5-min Rain = 0
KFL1 081623Z 04004KT M00/M05 A3031 RMK A01 T10031049  RH  071%=      5-min Rain = 0
KFL1 081624Z 05003KT M00/M05 A3031 RMK A01 T10031049  RH  071%=      5-min Rain = 0
KFL1 081625Z 06002KT M00/M05 A3031 RMK A01 T10041049  RH  072%=      5-min Rain = 0
KFL1 081626Z 05002KT M00/M05 A3031 RMK A01 T10041048  RH  072%=      5-min Rain = 0
KFL1 081627Z 07002KT M00/M05 A3031 RMK A01 T10031048  RH  072%=      5-min Rain = 0
KFL1 081628Z 07003KT M00/M05 A3031 RMK A01 T10021048  RH  071%=      5-min Rain = 0
KFL1 081629Z 03003KT 00/M05 A3031 RMK A01 T00021046  RH  070%=      5-min Rain = 0
KFL1 081630Z 02003KT 00/M05 A3032 RMK A01 T00011048  RH  069%=      5-min Rain = 0
KFL1 081631Z 05002KT 00/05 A3032 RMK A01 T00000-49  RH  069%=      5-min Rain = 0
KFL1 081632Z 03003KT M00/M05 A3032 RMK A01 T10021050  RH  070%=      5-min Rain = 0
KFL1 081633Z 01002KT M00/M05 A3032 RMK A01 T10021048  RH  071%=      5-min Rain = 0
KFL1 081634Z 01002KT M00/M05 A3032 RMK A01 T10031048  RH  071%=      5-min Rain = 0
KFL1 081635Z 08002KT M00/M05 A3032 RMK A01 T10021047  RH  072%=      5-min Rain = 0
KFL1 081636Z 06002KT 00/05 A3032 RMK A01 T00000-45  RH  072%=      5-min Rain = 0
KFL1 081637Z 03002KT 00/M05 A3032 RMK A01 T00021045  RH  071%=      5-min Rain = 0
KFL1 081638Z 06002KT 00/M05 A3032 RMK A01 T00031045  RH  070%=      5-min Rain = 0
KFL1 081639Z 09003KT 00/M05 A3032 RMK A01 T00021045  RH  070%=      5-min Rain = 0
KFL1 081640Z 11002KT 00/M04 A3032 RMK A01 T00041044  RH  070%=      5-min Rain = 0
KFL1 081641Z 11002KT 01/M05 A3032 RMK A01 T00061045  RH  069%=      5-min Rain = 0
KFL1 081642Z 05000KT 01/M05 A3032 RMK A01 T00081046  RH  067%=      5-min Rain = 0
KFL1 081643Z 05001KT 01/M05 A3032 RMK A01 T00101045  RH  067%=      5-min Rain = 0
KFL1 081644Z 06001KT 01/M05 A3032 RMK A01 T00101046  RH  066%=      5-min Rain = 0
KFL1 081645Z 09001KT 01/M05 A3032 RMK A01 T00091047  RH  066%=      5-min Rain = 0
KFL1 081646Z 08002KT 01/M05 A3032 RMK A01 T00101047  RH  066%=      5-min Rain = 0
KFL1 081647Z 08003KT 01/M05 A3032 RMK A01 T00111047  RH  066%=      5-min Rain = 0
KFL1 081648Z 08003KT 01/M05 A3032 RMK A01 T00121046  RH  065%=      5-min Rain = 0
KFL1 081649Z 11003KT 01/M05 A3032 RMK A01 T00121046  RH  065%=      5-min Rain = 0
KFL1 081650Z 09003KT 01/M05 A3032 RMK A01 T00131047  RH  064%=      5-min Rain = 0
KFL1 081651Z 09003KT 01/M05 A3032 RMK A01 T00141046  RH  064%=      5-min Rain = 0
KFL1 081652Z 10003KT 02/M05 A3032 RMK A01 T00161046  RH  064%=      5-min Rain = 0
KFL1 081653Z 11003KT 02/M05 A3032 RMK A01 T00161048  RH  063%=      5-min Rain = 0
KFL1 081654Z 10003KT 01/M05 A3032 RMK A01 T00141048  RH  063%=      5-min Rain = 0
KFL1 081655Z 09004KT 01/M05 A3032 RMK A01 T00121048  RH  064%=      5-min Rain = 0
KFL1 081656Z 10004KT 01/M05 A3032 RMK A01 T00121046  RH  065%=      5-min Rain = 0
KFL1 081657Z 09003KT 01/M05 A3032 RMK A01 T00111047  RH  065%=      5-min Rain = 0
KFL1 081658Z 12002KT 01/M05 A3032 RMK A01 T00101048  RH  065%=      5-min Rain = 0
KFL1 081659Z 12004KT 01/M05 A3032 RMK A01 T00091049  RH  065%=      5-min Rain = 0
KFL1 081700Z 13003KT 01/M05 A3032 RMK A01 T00091049  RH  065%=      5-min Rain = 0
KFL1 081701Z 11002KT 01/M05 A3032 RMK A01 T00121047  RH  065%=      5-min Rain = 0
KFL1 081702Z 09002KT 01/M05 A3032 RMK A01 T00141047  RH  064%=      5-min Rain = 0
KFL1 081703Z 10002KT 02/M05 A3032 RMK A01 T00161047  RH  063%=      5-min Rain = 0
KFL1 081704Z 12002KT 02/M05 A3032 RMK A01 T00161048  RH  062%=      5-min Rain = 0
KFL1 081705Z 12003KT 02/M05 A3032 RMK A01 T00161047  RH  063%=      5-min Rain = 0
KFL1 081706Z 09003KT 02/M05 A3032 RMK A01 T00161047  RH  063%=      5-min Rain = 0
KFL1 081707Z 08003KT 02/M05 A3032 RMK A01 T00151049  RH  063%=      5-min Rain = 0
KFL1 081708Z 08002KT 01/M05 A3032 RMK A01 T00131049  RH  063%=      5-min Rain = 0
KFL1 081709Z 08002KT 01/M05 A3032 RMK A01 T00131048  RH  064%=      5-min Rain = 0
KFL1 081710Z 06002KT 01/M05 A3032 RMK A01 T00141047  RH  063%=      5-min Rain = 0
KFL1 081711Z 09003KT 02/M04 A3032 RMK A01 T00161044  RH  064%=      5-min Rain = 0
KFL1 081712Z 11002KT 02/M05 A3032 RMK A01 T00161045  RH  064%=      5-min Rain = 0
KFL1 081713Z 10002KT 02/M04 A3032 RMK A01 T00181044  RH  063%=      5-min Rain = 0
KFL1 081714Z 11002KT 02/M04 A3032 RMK A01 T00171044  RH  064%=      5-min Rain = 0
KFL1 081715Z 12002KT 02/M04 A3032 RMK A01 T00171044  RH  064%=      5-min Rain = 0
KFL1 081716Z 12003KT 02/M04 A3032 RMK A01 T00181042  RH  064%=      5-min Rain = 0
KFL1 081717Z 11001KT 02/M04 A3032 RMK A01 T00221040  RH  063%=      5-min Rain = 0
KFL1 081718Z 12001KT 02/M04 A3032 RMK A01 T00221044  RH  062%=      5-min Rain = 0
KFL1 081719Z 11002KT 02/M04 A3032 RMK A01 T00221043  RH  062%=      5-min Rain = 0
KFL1 081720Z 11001KT 02/M04 A3032 RMK A01 T00231041  RH  062%=      5-min Rain = 0
KFL1 081721Z 12002KT 03/M04 A3032 RMK A01 T00251042  RH  061%=      5-min Rain = 0
KFL1 081722Z 14002KT 03/M04 A3032 RMK A01 T00251042  RH  061%=      5-min Rain = 0
KFL1 081723Z 13002KT 03/M04 A3032 RMK A01 T00251041  RH  062%=      5-min Rain = 0
KFL1 081724Z 16002KT 02/M04 A3032 RMK A01 T00211043  RH  062%=      5-min Rain = 0
KFL1 081725Z 15002KT 02/M04 A3032 RMK A01 T00201043  RH  063%=      5-min Rain = 0
KFL1 081726Z 16003KT 02/M04 A3032 RMK A01 T00201042  RH  064%=      5-min Rain = 0
KFL1 081727Z 17002KT 02/M04 A3032 RMK A01 T00201041  RH  064%=      5-min Rain = 0
KFL1 081728Z 15002KT 02/M04 A3032 RMK A01 T00201041  RH  064%=      5-min Rain = 0
KFL1 081729Z 11002KT 02/M04 A3032 RMK A01 T00201040  RH  064%=      5-min Rain = 0
KFL1 081730Z 12002KT 02/M04 A3032 RMK A01 T00181042  RH  064%=      5-min Rain = 0
KFL1 081731Z 11002KT 02/M04 A3032 RMK A01 T00201041  RH  064%=      5-min Rain = 0
KFL1 081732Z 13001KT 02/M04 A3032 RMK A01 T00201041  RH  064%=      5-min Rain = 0
KFL1 081733Z 16002KT 02/M04 A3032 RMK A01 T00191040  RH  065%=      5-min Rain = 0
KFL1 081734Z 15002KT 02/M04 A3032 RMK A01 T00191040  RH  065%=      5-min Rain = 0
KFL1 081735Z 16002KT 02/M04 A3032 RMK A01 T00201039  RH  065%=      5-min Rain = 0
KFL1 081736Z 19002KT 02/M04 A3032 RMK A01 T00241038  RH  064%=      5-min Rain = 0
KFL1 081737Z 18002KT 02/M04 A3032 RMK A01 T00241039  RH  063%=      5-min Rain = 0
KFL1 081738Z 16001KT 03/M04 A3032 RMK A01 T00261038  RH  063%=      5-min Rain = 0
KFL1 081739Z 21001KT 03/M04 A3032 RMK A01 T00281038  RH  062%=      5-min Rain = 0
KFL1 081740Z 25002KT 03/M04 A3032 RMK A01 T00271039  RH  062%=      5-min Rain = 0
KFL1 081741Z 24003KT 02/M04 A3032 RMK A01 T00221042  RH  062%=      5-min Rain = 0
KFL1 081742Z 23002KT 02/M04 A3032 RMK A01 T00211042  RH  063%=      5-min Rain = 0
KFL1 081743Z 23001KT 02/M04 A3032 RMK A01 T00201040  RH  064%=      5-min Rain = 0
KFL1 081744Z 18002KT 02/M04 A3032 RMK A01 T00221040  RH  064%=      5-min Rain = 0
KFL1 081745Z 22002KT 02/M04 A3032 RMK A01 T00221041  RH  063%=      5-min Rain = 0
KFL1 081746Z 23003KT 02/M04 A3032 RMK A01 T00221041  RH  063%=      5-min Rain = 0
KFL1 081747Z 23002KT 02/M04 A3032 RMK A01 T00181043  RH  064%=      5-min Rain = 0
KFL1 081748Z 22003KT 02/M04 A3032 RMK A01 T00191041  RH  064%=      5-min Rain = 0
KFL1 081749Z 22004KT 02/M04 A3032 RMK A01 T00191039  RH  065%=      5-min Rain = 0
KFL1 081750Z 23003KT 02/M04 A3032 RMK A01 T00191039  RH  065%=      5-min Rain = 0
KFL1 081751Z 23004KT 02/M04 A3032 RMK A01 T00191040  RH  065%=      5-min Rain = 0
KFL1 081752Z 22003KT 02/M04 A3032 RMK A01 T00181041  RH  065%=      5-min Rain = 0
KFL1 081753Z 21004KT 02/M04 A3032 RMK A01 T00181040  RH  066%=      5-min Rain = 0
KFL1 081754Z 21003KT 02/M04 A3032 RMK A01 T00171040  RH  066%=      5-min Rain = 0
KFL1 081755Z 21004KT 02/M04 A3032 RMK A01 T00171042  RH  065%=      5-min Rain = 0
KFL1 081756Z 21003KT 02/M04 A3032 RMK A01 T00181041  RH  065%=      5-min Rain = 0
KFL1 081757Z 21003KT 02/M04 A3032 RMK A01 T00211039  RH  064%=      5-min Rain = 0
KFL1 081758Z 21002KT 02/M04 A3032 RMK A01 T00211040  RH  064%=      5-min Rain = 0
KFL1 081759Z 21003KT 02/M04 A3032 RMK A01 T00221041  RH  063%=      5-min Rain = 0
KFL1 081800Z 21003KT 02/M04 A3032 RMK A01 T00221041  RH  063%=      5-min Rain = 0
KFL1 081801Z 21003KT 02/M04 A3032 RMK A01 T00221041  RH  063%=      5-min Rain = 0
KFL1 081802Z 21003KT 02/M04 A3032 RMK A01 T00231041  RH  063%=      5-min Rain = 0
KFL1 081803Z 22003KT 02/M04 A3032 RMK A01 T00231041  RH  063%=      5-min Rain = 0
KFL1 081804Z 23003KT 02/M04 A3032 RMK A01 T00221040  RH  063%=      5-min Rain = 0
KFL1 081805Z 24003KT 02/M04 A3032 RMK A01 T00221039  RH  064%=      5-min Rain = 0
KFL1 081806Z 22004KT 02/M04 A3032 RMK A01 T00211040  RH  064%=      5-min Rain = 0
KFL1 081807Z 21005KT 02/M04 A3032 RMK A01 T00211040  RH  064%=      5-min Rain = 0
KFL1 081808Z 19004KT 02/M04 A3032 RMK A01 T00221039  RH  064%=      5-min Rain = 0
KFL1 081809Z 17005KT 02/M04 A3032 RMK A01 T00221039  RH  064%=      5-min Rain = 0
KFL1 081810Z 17004KT 02/M04 A3032 RMK A01 T00241039  RH  063%=      5-min Rain = 0
KFL1 081811Z 18003KT 02/M04 A3032 RMK A01 T00241039  RH  063%=      5-min Rain = 0
KFL1 081812Z 18002KT 03/M04 A3032 RMK A01 T00251038  RH  063%=      5-min Rain = 0
KFL1 081813Z 18004KT 03/M04 A3032 RMK A01 T00271039  RH  062%=      5-min Rain = 0
KFL1 081814Z 18004KT 03/M04 A3032 RMK A01 T00271041  RH  061%=      5-min Rain = 0
KFL1 081815Z 18004KT 03/M04 A3032 RMK A01 T00281040  RH  061%=      5-min Rain = 0
KFL1 081816Z 21004KT 03/M04 A3032 RMK A01 T00281040  RH  061%=      5-min Rain = 0
KFL1 081817Z 21003KT 03/M04 A3032 RMK A01 T00271040  RH  061%=      5-min Rain = 0
KFL1 081818Z 21003KT 03/M04 A3032 RMK A01 T00271041  RH  061%=      5-min Rain = 0
KFL1 081819Z 22003KT 03/M04 A3032 RMK A01 T00271040  RH  061%=      5-min Rain = 0
KFL1 081820Z 20003KT 03/M04 A3032 RMK A01 T00251040  RH  062%=      5-min Rain = 0
KFL1 081821Z 22003KT 02/M04 A3032 RMK A01 T00231041  RH  063%=      5-min Rain = 0
KFL1 081822Z 20003KT 02/M04 A3032 RMK A01 T00211038  RH  065%=      5-min Rain = 0
KFL1 081823Z 21004KT 02/M04 A3032 RMK A01 T00211040  RH  064%=      5-min Rain = 0
KFL1 081824Z 20005KT 02/M04 A3032 RMK A01 T00181039  RH  066%=      5-min Rain = 0
KFL1 081825Z 20005KT 02/M04 A3032 RMK A01 T00161040  RH  066%=      5-min Rain = 0
KFL1 081826Z 22004KT 02/M04 A3032 RMK A01 T00171039  RH  066%=      5-min Rain = 0
KFL1 081827Z 20005KT 02/M04 A3032 RMK A01 T00191037  RH  067%=      5-min Rain = 0
KFL1 081828Z 21005KT 02/M04 A3032 RMK A01 T00211037  RH  066%=      5-min Rain = 0
KFL1 081829Z 20006KT 02/M04 A3032 RMK A01 T00211039  RH  065%=      5-min Rain = 0
KFL1 081830Z 19005KT 02/M04 A3031 RMK A01 T00221038  RH  065%=      5-min Rain = 0
KFL1 081831Z 21005KT 02/M04 A3031 RMK A01 T00231037  RH  065%=      5-min Rain = 0
KFL1 081832Z 20005KT 02/M04 A3031 RMK A01 T00231037  RH  064%=      5-min Rain = 0
KFL1 081833Z 19005KT 02/M04 A3031 RMK A01 T00241037  RH  064%=      5-min Rain = 0
KFL1 081834Z 18004KT 03/M04 A3031 RMK A01 T00271036  RH  064%=      5-min Rain = 0
KFL1 081835Z 21004KT 03/M04 A3031 RMK A01 T00271036  RH  063%=      5-min Rain = 0
KFL1 081836Z 21005KT 03/M04 A3031 RMK A01 T00271036  RH  063%=      5-min Rain = 0
KFL1 081837Z 22005KT 03/M04 A3031 RMK A01 T00271035  RH  064%=      5-min Rain = 0
KFL1 081838Z 21006KT 03/M04 A3031 RMK A01 T00271035  RH  064%=      5-min Rain = 0
KFL1 081839Z 21006KT 03/M04 A3031 RMK A01 T00281035  RH  063%=      5-min Rain = 0
KFL1 081840Z 21007KT 03/M04 A3031 RMK A01 T00271037  RH  063%=      5-min Rain = 0
KFL1 081841Z 21006KT 03/M04 A3031 RMK A01 T00261037  RH  063%=      5-min Rain = 0
KFL1 081842Z 21007KT 03/M04 A3031 RMK A01 T00251037  RH  064%=      5-min Rain = 0
KFL1 081843Z 21006KT 02/M04 A3031 RMK A01 T00221038  RH  064%=      5-min Rain = 0
KFL1 081844Z 21007KT 02/M04 A3031 RMK A01 T00241035  RH  065%=      5-min Rain = 0
KFL1 081845Z 22006KT 02/M04 A3031 RMK A01 T00241036  RH  065%=      5-min Rain = 0
KFL1 081846Z 22007KT 02/M04 A3031 RMK A01 T00221036  RH  065%=      5-min Rain = 0
KFL1 081847Z 21006KT 02/M04 A3031 RMK A01 T00211035  RH  066%=      5-min Rain = 0
KFL1 081848Z 21006KT 02/M03 A3031 RMK A01 T00211033  RH  067%=      5-min Rain = 0
KFL1 081849Z 19005KT 02/M03 A3031 RMK A01 T00231032  RH  067%=      5-min Rain = 0
KFL1 081850Z 20005KT 02/M03 A3031 RMK A01 T00241031  RH  067%=      5-min Rain = 0
KFL1 081851Z 21007KT 03/M03 A303 RMK A01 T00251032  RH  066%=      5-min Rain = 0
KFL1 081852Z 20006KT 02/M03 A303 RMK A01 T00231034  RH  066%=      5-min Rain = 0
KFL1 081853Z 21006KT 02/M04 A303 RMK A01 T00201037  RH  066%=      5-min Rain = 0
KFL1 081854Z 21007KT 02/M03 A303 RMK A01 T00211034  RH  067%=      5-min Rain = 0
KFL1 081855Z 22006KT 02/M03 A303 RMK A01 T00211034  RH  067%=      5-min Rain = 0
KFL1 081856Z 22006KT 02/M03 A303 RMK A01 T00211034  RH  067%=      5-min Rain = 0
KFL1 081857Z 22005KT 02/M03 A303 RMK A01 T00201033  RH  068%=      5-min Rain = 0
KFL1 081858Z 21006KT 02/M03 A303 RMK A01 T00201032  RH  068%=      5-min Rain = 0
KFL1 081859Z 20006KT 02/M03 A303 RMK A01 T00211033  RH  067%=      5-min Rain = 0
KFL1 081900Z 20005KT 02/M03 A303 RMK A01 T00221032  RH  067%=      5-min Rain = 0
KFL1 081901Z 19005KT 02/M03 A303 RMK A01 T00241032  RH  067%=      5-min Rain = 0
KFL1 081902Z 20006KT 02/M03 A303 RMK A01 T00241031  RH  067%=      5-min Rain = 0
KFL1 081903Z 19005KT 02/M03 A303 RMK A01 T00231032  RH  067%=      5-min Rain = 0
KFL1 081904Z 20006KT 03/M03 A303 RMK A01 T00251031  RH  067%=      5-min Rain = 0
KFL1 081905Z 20006KT 02/M03 A303 RMK A01 T00211034  RH  067%=      5-min Rain = 0
KFL1 081906Z 20005KT 02/M03 A303 RMK A01 T00201033  RH  068%=      5-min Rain = 0
KFL1 081907Z 18005KT 02/M03 A3029 RMK A01 T00201032  RH  068%=      5-min Rain = 0
KFL1 081908Z 19004KT 02/M03 A3029 RMK A01 T00221033  RH  067%=      5-min Rain = 0
KFL1 081909Z 20004KT 03/M03 A3029 RMK A01 T00251030  RH  067%=      5-min Rain = 0
KFL1 081910Z 21007KT 02/M03 A3029 RMK A01 T00241032  RH  067%=      5-min Rain = 0
KFL1 081911Z 19006KT 02/M03 A3029 RMK A01 T00231033  RH  067%=      5-min Rain = 0
KFL1 081912Z 19007KT 02/M04 A3029 RMK A01 T00221035  RH  066%=      5-min Rain = 0
KFL1 081913Z 20006KT 02/M03 A3029 RMK A01 T00221033  RH  067%=      5-min Rain = 0
KFL1 081914Z 20005KT 02/M03 A3029 RMK A01 T00201033  RH  068%=      5-min Rain = 0
KFL1 081915Z 20006KT 02/M03 A3029 RMK A01 T00201033  RH  068%=      5-min Rain = 0
KFL1 081916Z 20006KT 02/M03 A3029 RMK A01 T00191034  RH  068%=      5-min Rain = 0
KFL1 081917Z 20006KT 02/M03 A3029 RMK A01 T00191032  RH  069%=      5-min Rain = 0
KFL1 081918Z 19006KT 02/M03 A3029 RMK A01 T00201032  RH  068%=      5-min Rain = 0
KFL1 081919Z 19005KT 02/M03 A3029 RMK A01 T00191034  RH  068%=      5-min Rain = 0
KFL1 081920Z 20006KT 02/M03 A3029 RMK A01 T00191032  RH  069%=      5-min Rain = 0
KFL1 081921Z 20005KT 02/M03 A3029 RMK A01 T00201030  RH  069%=      5-min Rain = 0
KFL1 081922Z 20006KT 02/M03 A3029 RMK A01 T00201031  RH  069%=      5-min Rain = 0
KFL1 081923Z 21007KT 02/M03 A3029 RMK A01 T00181034  RH  068%=      5-min Rain = 0
KFL1 081924Z 21007KT 02/M04 A3029 RMK A01 T00171035  RH  068%=      5-min Rain = 0
KFL1 081925Z 20006KT 02/M04 A3029 RMK A01 T00161035  RH  069%=      5-min Rain = 0
KFL1 081926Z 20006KT 02/M03 A3029 RMK A01 T00171034  RH  069%=      5-min Rain = 0
KFL1 081927Z 19005KT 02/M04 A3029 RMK A01 T00151036  RH  069%=      5-min Rain = 0
KFL1 081928Z 19004KT 02/M04 A3029 RMK A01 T00161035  RH  069%=      5-min Rain = 0
KFL1 081929Z 21006KT 02/M03 A3029 RMK A01 T00181033  RH  069%=      5-min Rain = 0
KFL1 081930Z 22004KT 02/M03 A3029 RMK A01 T00171033  RH  069%=      5-min Rain = 0
KFL1 081931Z 20006KT 02/M03 A3029 RMK A01 T00181033  RH  069%=      5-min Rain = 0
KFL1 081932Z 21006KT 02/M03 A3029 RMK A01 T00181033  RH  069%=      5-min Rain = 0
KFL1 081933Z 22007KT 02/M04 A3029 RMK A01 T00181035  RH  068%=      5-min Rain = 0
KFL1 081934Z 22005KT 02/M04 A3029 RMK A01 T00171036  RH  068%=      5-min Rain = 0
KFL1 081935Z 23005KT 02/M04 A3029 RMK A01 T00161035  RH  069%=      5-min Rain = 0
KFL1 081936Z 21007KT 02/M03 A3029 RMK A01 T00161034  RH  069%=      5-min Rain = 0
KFL1 081937Z 21007KT 01/M04 A3029 RMK A01 T00141036  RH  069%=      5-min Rain = 0
KFL1 081938Z 22007KT 01/M04 A3029 RMK A01 T00141037  RH  069%=      5-min Rain = 0
KFL1 081939Z 22007KT 01/M04 A3029 RMK A01 T00131037  RH  069%=      5-min Rain = 0
KFL1 081940Z 22006KT 01/M04 A3029 RMK A01 T00141036  RH  070%=      5-min Rain = 0
KFL1 081941Z 22006KT 01/M04 A3029 RMK A01 T00111038  RH  070%=      5-min Rain = 0
KFL1 081942Z 22006KT 01/M04 A3028 RMK A01 T00101037  RH  070%=      5-min Rain = 0
KFL1 081943Z 22006KT 01/M04 A3028 RMK A01 T00121035  RH  071%=      5-min Rain = 0
KFL1 081944Z 22005KT 01/M03 A3028 RMK A01 T00121034  RH  071%=      5-min Rain = 0
KFL1 081945Z 21008KT 01/M03 A3028 RMK A01 T00131034  RH  071%=      5-min Rain = 0
KFL1 081946Z 21007KT 01/M04 A3028 RMK A01 T00121036  RH  070%=      5-min Rain = 0
KFL1 081947Z 22008KT 01/M04 A3028 RMK A01 T00111037  RH  070%=      5-min Rain = 0
KFL1 081948Z 20006KT 01/M04 A3028 RMK A01 T00131035  RH  071%=      5-min Rain = 0
KFL1 081949Z 22006KT 01/M03 A3028 RMK A01 T00131034  RH  071%=      5-min Rain = 0
KFL1 081950Z 22007KT 01/M03 A3028 RMK A01 T00141034  RH  070%=      5-min Rain = 0
KFL1 081951Z 21006KT 01/M04 A3028 RMK A01 T00121037  RH  070%=      5-min Rain = 0
KFL1 081952Z 21007KT 01/M04 A3028 RMK A01 T00111035  RH  071%=      5-min Rain = 0
KFL1 081953Z 22006KT 01/M04 A3028 RMK A01 T00121036  RH  071%=      5-min Rain = 0
KFL1 081954Z 22004KT 01/M04 A3028 RMK A01 T00131035  RH  070%=      5-min Rain = 0
KFL1 081955Z 22006KT 01/M04 A3028 RMK A01 T00121036  RH  070%=      5-min Rain = 0
KFL1 081956Z 23004KT 01/M04 A3028 RMK A01 T00121035  RH  071%=      5-min Rain = 0
KFL1 081957Z 23004KT 01/M04 A3028 RMK A01 T00121036  RH  071%=      5-min Rain = 0
KFL1 081958Z 22003KT 01/M03 A3028 RMK A01 T00121034  RH  071%=      5-min Rain = 0
KFL1 081959Z 22005KT 01/M03 A3028 RMK A01 T00131034  RH  071%=      5-min Rain = 0
KFL1 082000Z 22005KT 01/M04 A3028 RMK A01 T00131035  RH  070%=      5-min Rain = 0
KFL1 082001Z 21005KT 02/M04 A3028 RMK A01 T00151036  RH  069%=      5-min Rain = 0
KFL1 082002Z 21006KT 01/M04 A3028 RMK A01 T00131038  RH  069%=      5-min Rain = 0
KFL1 082003Z 21005KT 01/M04 A3028 RMK A01 T00121037  RH  070%=      5-min Rain = 0
KFL1 082004Z 22006KT 01/M04 A3028 RMK A01 T00131036  RH  070%=      5-min Rain = 0
KFL1 082005Z 21006KT 01/M04 A3028 RMK A01 T00131037  RH  069%=      5-min Rain = 0
KFL1 082006Z 22005KT 01/M04 A3028 RMK A01 T00131037  RH  069%=      5-min Rain = 0
KFL1 082007Z 22006KT 01/M04 A3028 RMK A01 T00131037  RH  069%=      5-min Rain = 0
KFL1 082008Z 22006KT 02/M04 A3028 RMK A01 T00151035  RH  069%=      5-min Rain = 0
KFL1 082009Z 22006KT 01/M04 A3028 RMK A01 T00141037  RH  069%=      5-min Rain = 0
KFL1 082010Z 22005KT 02/M04 A3028 RMK A01 T00161035  RH  069%=      5-min Rain = 0
KFL1 082011Z 22006KT 01/M04 A3028 RMK A01 T00141036  RH  069%=      5-min Rain = 0
KFL1 082012Z 23006KT 01/M04 A3028 RMK A01 T00141035  RH  070%=      5-min Rain = 0
KFL1 082013Z 23005KT 01/M04 A3028 RMK A01 T00131036  RH  070%=      5-min Rain = 0
KFL1 082014Z 24006KT 01/M03 A3028 RMK A01 T00121034  RH  071%=      5-min Rain = 0
KFL1 082015Z 24004KT 01/M04 A3028 RMK A01 T00111035  RH  071%=      5-min Rain = 0
KFL1 082016Z 23006KT 01/M04 A3028 RMK A01 T00111036  RH  071%=      5-min Rain = 0
KFL1 082017Z 24005KT 01/M04 A3028 RMK A01 T00101036  RH  071%=      5-min Rain = 0
KFL1 082018Z 23005KT 01/M04 A3027 RMK A01 T00111035  RH  072%=      5-min Rain = 0
KFL1 082019Z 23004KT 01/M03 A3027 RMK A01 T00111034  RH  072%=      5-min Rain = 0
KFL1 082020Z 23006KT 01/M03 A3027 RMK A01 T00111034  RH  072%=      5-min Rain = 0
KFL1 082021Z 22004KT 01/M04 A3027 RMK A01 T00121036  RH  071%=      5-min Rain = 0
KFL1 082022Z 22003KT 01/M04 A3027 RMK A01 T00111036  RH  071%=      5-min Rain = 0
KFL1 082023Z 22003KT 01/M04 A3027 RMK A01 T00111036  RH  071%=      5-min Rain = 0
KFL1 082024Z 22002KT 01/M04 A3027 RMK A01 T00121037  RH  070%=      5-min Rain = 0
KFL1 082025Z 22005KT 02/M03 A3027 RMK A01 T00151034  RH  070%=      5-min Rain = 0
KFL1 082026Z 22005KT 01/M04 A3027 RMK A01 T00141035  RH  070%=      5-min Rain = 0
KFL1 082027Z 21004KT 01/M04 A3027 RMK A01 T00141035  RH  070%=      5-min Rain = 0
KFL1 082028Z 22005KT 01/M04 A3027 RMK A01 T00141036  RH  070%=      5-min Rain = 0
KFL1 082029Z 22005KT 02/M03 A3027 RMK A01 T00161034  RH  070%=      5-min Rain = 0
KFL1 082030Z 21006KT 02/M04 A3027 RMK A01 T00161035  RH  069%=      5-min Rain = 0
KFL1 082031Z 21007KT 02/M04 A3027 RMK A01 T00151035  RH  069%=      5-min Rain = 0
KFL1 082032Z 21006KT 02/M03 A3027 RMK A01 T00171034  RH  069%=      5-min Rain = 0
KFL1 082033Z 21005KT 02/M04 A3027 RMK A01 T00151035  RH  069%=      5-min Rain = 0
KFL1 082034Z 21005KT 02/M03 A3027 RMK A01 T00161034  RH  069%=      5-min Rain = 0
KFL1 082035Z 21006KT 02/M03 A3027 RMK A01 T00171034  RH  069%=      5-min Rain = 0
KFL1 082036Z 20006KT 02/M04 A3027 RMK A01 T00181035  RH  068%=      5-min Rain = 0
KFL1 082037Z 20007KT 02/M04 A3027 RMK A01 T00171036  RH  068%=      5-min Rain = 0
KFL1 082038Z 20005KT 02/M04 A3027 RMK A01 T00171037  RH  068%=      5-min Rain = 0
KFL1 082039Z 20007KT 02/M04 A3027 RMK A01 T00181036  RH  068%=      5-min Rain = 0
KFL1 082040Z 20007KT 02/M04 A3028 RMK A01 T00181036  RH  067%=      5-min Rain = 0
KFL1 082041Z 21005KT 02/M04 A3027 RMK A01 T00191035  RH  068%=      5-min Rain = 0
KFL1 082042Z 22006KT 02/M03 A3027 RMK A01 T00181034  RH  068%=      5-min Rain = 0
KFL1 082043Z 22005KT 02/M04 A3027 RMK A01 T00181035  RH  068%=      5-min Rain = 0
KFL1 082044Z 21007KT 02/M04 A3027 RMK A01 T00171035  RH  068%=      5-min Rain = 0
KFL1 082045Z 21006KT 02/M04 A3027 RMK A01 T00171036  RH  068%=      5-min Rain = 0
KFL1 082046Z 20006KT 02/M04 A3027 RMK A01 T00171035  RH  068%=      5-min Rain = 0
KFL1 082047Z 21006KT 02/M03 A3027 RMK A01 T00181034  RH  068%=      5-min Rain = 0
KFL1 082048Z 21005KT 02/M03 A3027 RMK A01 T00181033  RH  069%=      5-min Rain = 0
KFL1 082049Z 21007KT 02/M03 A3027 RMK A01 T00191032  RH  069%=      5-min Rain = 0
KFL1 082050Z 20007KT 02/M03 A3027 RMK A01 T00181032  RH  069%=      5-min Rain = 0
KFL1 082051Z 21008KT 02/M03 A3027 RMK A01 T00181032  RH  069%=      5-min Rain = 0
KFL1 082052Z 21007KT 02/M03 A3027 RMK A01 T00151033  RH  070%=      5-min Rain = 0
KFL1 082053Z 21006KT 02/M03 A3027 RMK A01 T00161031  RH  071%=      5-min Rain = 0
KFL1 082054Z 20008KT 02/M03 A3027 RMK A01 T00171030  RH  071%=      5-min Rain = 0
KFL1 082055Z 20007KT 02/M03 A3027 RMK A01 T00171031  RH  070%=      5-min Rain = 0
KFL1 082056Z 21006KT 02/M03 A3027 RMK A01 T00161031  RH  071%=      5-min Rain = 0
KFL1 082057Z 21005KT 02/M03 A3027 RMK A01 T00161031  RH  071%=      5-min Rain = 0
KFL1 082058Z 21006KT 02/M03 A3027 RMK A01 T00151031  RH  071%=      5-min Rain = 0
KFL1 082059Z 21007KT 02/M03 A3027 RMK A01 T00161029  RH  072%=      5-min Rain = 0
KFL1 082100Z 21006KT 02/M03 A3027 RMK A01 T00171029  RH  071%=      5-min Rain = 0
KFL1 082101Z 20006KT 02/M03 A3027 RMK A01 T00161030  RH  071%=      5-min Rain = 0
KFL1 082102Z 21005KT 01/M03 A3027 RMK A01 T00141030  RH  072%=      5-min Rain = 0
KFL1 082103Z 21006KT 02/M03 A3027 RMK A01 T00151028  RH  073%=      5-min Rain = 0
KFL1 082104Z 21007KT 02/M03 A3027 RMK A01 T00151030  RH  072%=      5-min Rain = 0
KFL1 082105Z 21005KT 02/M03 A3027 RMK A01 T00151029  RH  072%=      5-min Rain = 0
KFL1 082106Z 20007KT 02/M03 A3027 RMK A01 T00151029  RH  072%=      5-min Rain = 0
KFL1 082107Z 20007KT 02/M03 A3027 RMK A01 T00151029  RH  072%=      5-min Rain = 0
KFL1 082108Z 22005KT 02/M03 A3027 RMK A01 T00151030  RH  072%=      5-min Rain = 0
KFL1 082109Z 21005KT 02/M03 A3027 RMK A01 T00151029  RH  072%=      5-min Rain = 0
KFL1 082110Z 21005KT 01/M03 A3027 RMK A01 T00141029  RH  073%=      5-min Rain = 0
KFL1 082111Z 21005KT 01/M03 A3027 RMK A01 T00141029  RH  073%=      5-min Rain = 0
KFL1 082112Z 21005KT 02/M03 A3027 RMK A01 T00161028  RH  073%=      5-min Rain = 0
KFL1 082113Z 21007KT 02/M03 A3027 RMK A01 T00151028  RH  073%=      5-min Rain = 0
KFL1 082114Z 22007KT 02/M03 A3027 RMK A01 T00161028  RH  073%=      5-min Rain = 0
KFL1 082115Z 22005KT 02/M03 A3027 RMK A01 T00151028  RH  073%=      5-min Rain = 0
KFL1 082116Z 21008KT 02/M03 A3027 RMK A01 T00151027  RH  074%=      5-min Rain = 0
KFL1 082117Z 22008KT 01/M03 A3027 RMK A01 T00121029  RH  074%=      5-min Rain = 0
KFL1 082118Z 23007KT 01/M03 A3027 RMK A01 T00131028  RH  074%=      5-min Rain = 0
KFL1 082119Z 20006KT 01/M03 A3027 RMK A01 T00131027  RH  075%=      5-min Rain = 0
KFL1 082120Z 21007KT 01/M03 A3027 RMK A01 T00131026  RH  075%=      5-min Rain = 0
KFL1 082121Z 20005KT 01/M03 A3027 RMK A01 T00141026  RH  075%=      5-min Rain = 0
KFL1 082122Z 20005KT 01/M03 A3027 RMK A01 T00131027  RH  075%=      5-min Rain = 0
KFL1 082123Z 20005KT 02/M03 A3028 RMK A01 T00151025  RH  075%=      5-min Rain = 0
KFL1 082124Z 20006KT 02/M02 A3028 RMK A01 T00171024  RH  074%=      5-min Rain = 0
KFL1 082125Z 20006KT 02/M03 A3028 RMK A01 T00171025  RH  074%=      5-min Rain = 0
KFL1 082126Z 21005KT 02/M03 A3028 RMK A01 T00161025  RH  074%=      5-min Rain = 0
KFL1 082127Z 20004KT 02/M03 A3028 RMK A01 T00151025  RH  074%=      5-min Rain = 0
KFL1 082128Z 20005KT 02/M03 A3028 RMK A01 T00161025  RH  075%=      5-min Rain = 0
KFL1 082129Z 19004KT 02/M02 A3028 RMK A01 T00161024  RH  075%=      5-min Rain = 0
KFL1 082130Z 20004KT 02/M02 A3028 RMK A01 T00161024  RH  075%=      5-min Rain = 0
KFL1 082131Z 20005KT 02/M02 A3028 RMK A01 T00171023  RH  074%=      5-min Rain = 0
KFL1 082132Z 19005KT 02/M02 A3028 RMK A01 T00171024  RH  074%=      5-min Rain = 0
KFL1 082133Z 20004KT 02/M03 A3028 RMK A01 T00161026  RH  074%=      5-min Rain = 0
KFL1 082134Z 20005KT 02/M03 A3028 RMK A01 T00161025  RH  074%=      5-min Rain = 0
KFL1 082135Z 21005KT 02/M02 A3028 RMK A01 T00161024  RH  075%=      5-min Rain = 0
KFL1 082136Z 21004KT 02/M03 A3028 RMK A01 T00161025  RH  075%=      5-min Rain = 0
KFL1 082137Z 21004KT 02/M02 A3028 RMK A01 T00171024  RH  074%=      5-min Rain = 0
KFL1 082138Z 20005KT 02/M02 A3028 RMK A01 T00171023  RH  074%=      5-min Rain = 0
KFL1 082139Z 21004KT 02/M02 A3028 RMK A01 T00171024  RH  074%=      5-min Rain = 0
KFL1 082140Z 21005KT 02/M02 A3028 RMK A01 T00171024  RH  074%=      5-min Rain = 0
KFL1 082141Z 20004KT 02/M03 A3028 RMK A01 T00161025  RH  074%=      5-min Rain = 0
KFL1 082142Z 21005KT 02/M03 A3028 RMK A01 T00161025  RH  074%=      5-min Rain = 0
KFL1 082143Z 21006KT 02/M03 A3028 RMK A01 T00151025  RH  075%=      5-min Rain = 0
KFL1 082144Z 21005KT 01/M03 A3028 RMK A01 T00141025  RH  075%=      5-min Rain = 0
KFL1 082145Z 20005KT 02/M02 A3028 RMK A01 T00171022  RH  076%=      5-min Rain = 0
KFL1 082146Z 21005KT 02/M02 A3028 RMK A01 T00151023  RH  076%=      5-min Rain = 0
KFL1 082147Z 21005KT 01/M03 A3028 RMK A01 T00131025  RH  076%=      5-min Rain = 0
KFL1 082148Z 20005KT 01/M03 A3028 RMK A01 T00121025  RH  077%=      5-min Rain = 0
KFL1 082149Z 21004KT 01/M02 A3028 RMK A01 T00111024  RH  077%=      5-min Rain = 0
KFL1 082150Z 21003KT 01/M02 A3028 RMK A01 T00111023  RH  078%=      5-min Rain = 0
KFL1 082151Z 21005KT 01/M02 A3028 RMK A01 T00111023  RH  078%=      5-min Rain = 0
KFL1 082152Z 21006KT 01/M03 A3028 RMK A01 T00081025  RH  079%=      5-min Rain = 0
KFL1 082153Z 20006KT 01/M03 A3028 RMK A01 T00061026  RH  079%=      5-min Rain = 0
KFL1 082154Z 21006KT 01/M02 A3028 RMK A01 T00071024  RH  080%=      5-min Rain = 0
KFL1 082155Z 20005KT 01/M02 A3028 RMK A01 T00051024  RH  080%=      5-min Rain = 0
KFL1 082156Z 21004KT 01/M02 A3028 RMK A01 T00051024  RH  081%=      5-min Rain = 0
KFL1 082157Z 21006KT 00/M03 A3028 RMK A01 T00031025  RH  081%=      5-min Rain = 0
KFL1 082158Z 21005KT 00/M03 A3028 RMK A01 T00021026  RH  082%=      5-min Rain = 0
KFL1 082159Z 21005KT 00/M02 A3028 RMK A01 T00021024  RH  082%=      5-min Rain = 0
KFL1 082200Z 21007KT 00/M02 A3028 RMK A01 T00031024  RH  082%=      5-min Rain = 0
KFL1 082201Z 21007KT 00/M02 A3028 RMK A01 T00041022  RH  082%=      5-min Rain = 0
KFL1 082202Z 21008KT 00/M03 A3028 RMK A01 T00011025  RH  082%=      5-min Rain = 0
KFL1 082203Z 22007KT M00/M03 A3028 RMK A01 T10011027  RH  083%=      5-min Rain = 0
KFL1 082204Z 22006KT M00/M03 A3028 RMK A01 T10021026  RH  084%=      5-min Rain = 0
KFL1 082205Z 22006KT M00/M03 A3028 RMK A01 T10021026  RH  084%=      5-min Rain = 0
KFL1 082206Z 22005KT 00/M02 A3028 RMK A01 T00011024  RH  083%=      5-min Rain = 0
KFL1 082207Z 21005KT 00/M02 A3028 RMK A01 T00021024  RH  083%=      5-min Rain = 0
KFL1 082208Z 20005KT 01/M02 A3028 RMK A01 T00051022  RH  082%=      5-min Rain = 0
KFL1 082209Z 22006KT 01/M02 A3028 RMK A01 T00091019  RH  082%=      5-min Rain = 0
KFL1 082210Z 21006KT 01/M02 A3028 RMK A01 T00091020  RH  081%=      5-min Rain = 0
KFL1 082211Z 21005KT 01/M02 A3028 RMK A01 T00101021  RH  080%=      5-min Rain = 0
KFL1 082212Z 21005KT 01/M02 A3028 RMK A01 T00121019  RH  080%=      5-min Rain = 0
KFL1 082213Z 22006KT 01/M02 A3028 RMK A01 T00111022  RH  078%=      5-min Rain = 0
KFL1 082214Z 21006KT 01/M02 A3028 RMK A01 T00131022  RH  078%=      5-min Rain = 0
KFL1 082215Z 21005KT 01/M02 A3028 RMK A01 T00121022  RH  078%=      5-min Rain = 0
KFL1 082216Z 21005KT 01/M02 A3028 RMK A01 T00121022  RH  078%=      5-min Rain = 0
KFL1 082217Z 22005KT 01/M02 A3028 RMK A01 T00121022  RH  078%=      5-min Rain = 0
KFL1 082218Z 22005KT 01/M02 A3028 RMK A01 T00131020  RH  078%=      5-min Rain = 0
KFL1 082219Z 21005KT 01/M02 A3028 RMK A01 T00111023  RH  078%=      5-min Rain = 0
KFL1 082220Z 20005KT 01/M02 A3029 RMK A01 T00121022  RH  078%=      5-min Rain = 0
KFL1 082221Z 20004KT 01/M02 A3029 RMK A01 T00101023  RH  079%=      5-min Rain = 0
KFL1 082222Z 20004KT 01/M02 A3028 RMK A01 T00101022  RH  079%=      5-min Rain = 0
KFL1 082223Z 21004KT 01/M02 A3029 RMK A01 T00101022  RH  079%=      5-min Rain = 0
KFL1 082224Z 21005KT 01/M02 A3029 RMK A01 T00121020  RH  079%=      5-min Rain = 0
KFL1 082225Z 20004KT 01/M02 A3028 RMK A01 T00121021  RH  079%=      5-min Rain = 0
KFL1 082226Z 22004KT 01/M02 A3028 RMK A01 T00111022  RH  079%=      5-min Rain = 0
KFL1 082227Z 21004KT 01/M02 A3028 RMK A01 T00121021  RH  079%=      5-min Rain = 0
KFL1 082228Z 23004KT 01/M02 A3028 RMK A01 T00111022  RH  079%=      5-min Rain = 0
KFL1 082229Z 23005KT 01/M02 A3028 RMK A01 T00111022  RH  078%=      5-min Rain = 0
KFL1 082230Z 23007KT 01/M02 A3028 RMK A01 T00121022  RH  078%=      5-min Rain = 0
KFL1 082231Z 22004KT 01/M02 A3028 RMK A01 T00121021  RH  079%=      5-min Rain = 0
KFL1 082232Z 23006KT 01/M02 A3028 RMK A01 T00121020  RH  079%=      5-min Rain = 0
KFL1 082233Z 23006KT 01/M02 A3028 RMK A01 T00091022  RH  079%=      5-min Rain = 0
KFL1 082234Z 23007KT 01/M02 A3028 RMK A01 T00091022  RH  080%=      5-min Rain = 0
KFL1 082235Z 23005KT 01/M02 A3028 RMK A01 T00081023  RH  080%=      5-min Rain = 0
KFL1 082236Z 23005KT 01/M02 A3028 RMK A01 T00061023  RH  081%=      5-min Rain = 0
KFL1 082237Z 22007KT 01/M02 A3028 RMK A01 T00081021  RH  081%=      5-min Rain = 0
KFL1 082238Z 22006KT 01/M02 A3028 RMK A01 T00051023  RH  081%=      5-min Rain = 0
KFL1 082239Z 23006KT 01/M02 A3028 RMK A01 T00051022  RH  082%=      5-min Rain = 0
KFL1 082240Z 22006KT 01/M02 A3028 RMK A01 T00051022  RH  082%=      5-min Rain = 0
KFL1 082241Z 23007KT 00/M02 A3028 RMK A01 T00041023  RH  082%=      5-min Rain = 0
KFL1 082242Z 22006KT 00/M02 A3028 RMK A01 T00041023  RH  082%=      5-min Rain = 0
KFL1 082243Z 22006KT 00/M02 A3028 RMK A01 T00031023  RH  083%=      5-min Rain = 0
KFL1 082244Z 22004KT 00/M02 A3028 RMK A01 T00031023  RH  083%=      5-min Rain = 0
KFL1 082245Z 22005KT 00/M02 A3028 RMK A01 T00031023  RH  083%=      5-min Rain = 0
KFL1 082246Z 22006KT 00/M02 A3028 RMK A01 T00031023  RH  083%=      5-min Rain = 0
KFL1 082247Z 22007KT 00/M02 A3028 RMK A01 T00031022  RH  083%=      5-min Rain = 0
KFL1 082248Z 23007KT 00/M02 A3029 RMK A01 T00021023  RH  083%=      5-min Rain = 0
KFL1 082249Z 22007KT 00/M02 A3029 RMK A01 T00021023  RH  083%=      5-min Rain = 0
KFL1 082250Z 22007KT 00/M02 A3029 RMK A01 T00021023  RH  084%=      5-min Rain = 0
KFL1 082251Z 22006KT 00/02 A3029 RMK A01 T00000-24  RH  084%=      5-min Rain = 0
KFL1 082252Z 22005KT 00/M02 A3029 RMK A01 T00021022  RH  084%=      5-min Rain = 0
KFL1 082253Z 23006KT 00/M02 A3029 RMK A01 T00011023  RH  084%=      5-min Rain = 0
KFL1 082254Z 22007KT 00/M02 A3029 RMK A01 T00021022  RH  084%=      5-min Rain = 0
KFL1 082255Z 22007KT 00/M02 A3029 RMK A01 T00031022  RH  084%=      5-min Rain = 0
KFL1 082256Z 22007KT 00/M02 A3029 RMK A01 T00031022  RH  084%=      5-min Rain = 0
KFL1 082257Z 22008KT 00/M02 A3029 RMK A01 T00031022  RH  083%=      5-min Rain = 0
KFL1 082258Z 22006KT 00/M02 A3029 RMK A01 T00021023  RH  083%=      5-min Rain = 0
KFL1 082259Z 22005KT 00/M02 A3029 RMK A01 T00031021  RH  083%=      5-min Rain = 0
KFL1 082300Z 22005KT 00/M02 A3029 RMK A01 T00031023  RH  083%=      5-min Rain = 0
KFL1 082301Z 22006KT 00/M02 A3029 RMK A01 T00031023  RH  083%=      5-min Rain = 0
KFL1 082302Z 21005KT 00/M02 A3029 RMK A01 T00031023  RH  083%=      5-min Rain = 0
KFL1 082303Z 21004KT 00/M02 A3029 RMK A01 T00021024  RH  082%=      5-min Rain = 0
KFL1 082304Z 21004KT 00/M02 A3029 RMK A01 T00031023  RH  083%=      5-min Rain = 0
KFL1 082305Z 21006KT 00/M02 A3029 RMK A01 T00041021  RH  083%=      5-min Rain = 0
KFL1 082306Z 22006KT 00/M02 A3029 RMK A01 T00021023  RH  084%=      5-min Rain = 0
KFL1 082307Z 23006KT 00/M02 A3029 RMK A01 T00021023  RH  084%=      5-min Rain = 0
KFL1 082308Z 22006KT M00/M03 A3029 RMK A01 T10011026  RH  084%=      5-min Rain = 0
KFL1 082309Z 22006KT M00/M03 A3029 RMK A01 T10011025  RH  084%=      5-min Rain = 0
KFL1 082310Z 23006KT M00/M03 A3029 RMK A01 T10011025  RH  084%=      5-min Rain = 0
KFL1 082311Z 23007KT M00/M03 A3029 RMK A01 T10011025  RH  084%=      5-min Rain = 0
KFL1 082312Z 23007KT M00/M03 A3029 RMK A01 T10011026  RH  084%=      5-min Rain = 0
KFL1 082313Z 24007KT M00/M03 A3029 RMK A01 T10021025  RH  085%=      5-min Rain = 0
KFL1 082314Z 23007KT M00/M02 A3029 RMK A01 T10021024  RH  085%=      5-min Rain = 0
KFL1 082315Z 24006KT M00/M02 A3029 RMK A01 T10021024  RH  085%=      5-min Rain = 0
KFL1 082316Z 24006KT M00/M03 A3029 RMK A01 T10031025  RH  085%=      5-min Rain = 0
KFL1 082317Z 23007KT M01/M03 A3029 RMK A01 T10051028  RH  085%=      5-min Rain = 0
KFL1 082318Z 24007KT M01/M03 A3029 RMK A01 T10061028  RH  085%=      5-min Rain = 0
KFL1 082319Z 24006KT M01/M03 A3029 RMK A01 T10071028  RH  086%=      5-min Rain = 0
KFL1 082320Z 24008KT M01/M03 A3029 RMK A01 T10071029  RH  086%=      5-min Rain = 0
KFL1 082321Z 23009KT M01/M03 A3029 RMK A01 T10071028  RH  086%=      5-min Rain = 0
KFL1 082322Z 23007KT M01/M03 A3029 RMK A01 T10071027  RH  087%=      5-min Rain = 0
KFL1 082323Z 24008KT M01/M03 A3029 RMK A01 T10071026  RH  087%=      5-min Rain = 0
KFL1 082324Z 24009KT M01/M03 A3029 RMK A01 T10081027  RH  087%=      5-min Rain = 0
KFL1 082325Z 25009KT M01/M03 A3029 RMK A01 T10101029  RH  087%=      5-min Rain = 0
KFL1 082326Z 24009KT M01/M03 A3029 RMK A01 T10091028  RH  087%=      5-min Rain = 0
KFL1 082327Z 24009KT M01/M03 A3029 RMK A01 T10101028  RH  087%=      5-min Rain = 0
KFL1 082328Z 24008KT M01/M03 A3029 RMK A01 T10111028  RH  088%=      5-min Rain = 0
KFL1 082329Z 24008KT M01/M03 A3029 RMK A01 T10091026  RH  089%=      5-min Rain = 0
KFL1 082330Z 25008KT M01/M03 A3029 RMK A01 T10111027  RH  089%=      5-min Rain = 0
KFL1 082331Z 26007KT M01/M03 A3029 RMK A01 T10121026  RH  090%=      5-min Rain = 0
KFL1 082332Z 26007KT M01/M03 A3029 RMK A01 T10111025  RH  090%=      5-min Rain = 0
KFL1 082333Z 27007KT M01/M02 A3029 RMK A01 T10101024  RH  090%=      5-min Rain = 0
KFL1 082334Z 26008KT M01/M03 A3029 RMK A01 T10101026  RH  089%=      5-min Rain = 0
KFL1 082335Z 26008KT M01/M03 A3029 RMK A01 T10111027  RH  089%=      5-min Rain = 0
KFL1 082336Z 26008KT M01/M03 A3028 RMK A01 T10101025  RH  089%=      5-min Rain = 0
KFL1 082337Z 26008KT M01/M03 A3028 RMK A01 T10091025  RH  089%=      5-min Rain = 0
KFL1 082338Z 26009KT M01/M03 A3028 RMK A01 T10081025  RH  088%=      5-min Rain = 0
KFL1 082339Z 26008KT M01/M03 A3028 RMK A01 T10091026  RH  088%=      5-min Rain = 0
KFL1 082340Z 26008KT M01/M03 A3028 RMK A01 T10091026  RH  089%=      5-min Rain = 0
KFL1 082341Z 25007KT M01/M03 A3028 RMK A01 T10091025  RH  089%=      5-min Rain = 0
KFL1 082342Z 25008KT M01/M02 A3028 RMK A01 T10091024  RH  089%=      5-min Rain = 0
KFL1 082343Z 25007KT M01/M03 A3028 RMK A01 T10111026  RH  089%=      5-min Rain = 0
KFL1 082344Z 25007KT M01/M03 A3028 RMK A01 T10111026  RH  090%=      5-min Rain = 0
KFL1 082345Z 25006KT M01/M03 A3028 RMK A01 T10111025  RH  090%=      5-min Rain = 0
KFL1 082346Z 24005KT M01/M03 A3028 RMK A01 T10121026  RH  090%=      5-min Rain = 0
KFL1 082347Z 23005KT M01/M03 A3029 RMK A01 T10141029  RH  089%=      5-min Rain = 0
KFL1 082348Z 23006KT M01/M03 A3029 RMK A01 T10141030  RH  089%=      5-min Rain = 0
KFL1 082349Z 22004KT M02/M03 A3029 RMK A01 T10171032  RH  089%=      5-min Rain = 0
KFL1 082350Z 21004KT M02/M03 A3029 RMK A01 T10181033  RH  089%=      5-min Rain = 0
KFL1 082351Z 20005KT M02/M03 A3029 RMK A01 T10181033  RH  090%=      5-min Rain = 0
KFL1 082352Z 19005KT M02/M04 A3029 RMK A01 T10201035  RH  090%=      5-min Rain = 0
KFL1 082353Z 19005KT M02/M04 A3029 RMK A01 T10221036  RH  090%=      5-min Rain = 0
KFL1 082354Z 18005KT M02/M03 A3029 RMK A01 T10211033  RH  091%=      5-min Rain = 0
KFL1 082355Z 18004KT M02/M03 A3029 RMK A01 T10221033  RH  092%=      5-min Rain = 0
KFL1 082356Z 18004KT M02/M03 A3029 RMK A01 T10221031  RH  093%=      5-min Rain = 0
KFL1 082357Z 17004KT M02/M03 A3029 RMK A01 T10221031  RH  093%=      5-min Rain = 0
KFL1 082358Z 16003KT M02/M03 A3029 RMK A01 T10211030  RH  094%=      5-min Rain = 0
KFL1 082359Z 17004KT M02/M03 A3029 RMK A01 T10231031  RH  094%=      5-min Rain = 0
KFL1 090000Z 18005KT M02/M03 A3029 RMK A01 T10221029  RH  095%=      5-min Rain = 0
KFL1 090001Z 18005KT M02/M03 A3029 RMK A01 T10231030  RH  095%=      5-min Rain = 0
KFL1 090002Z 18005KT M02/M03 A3029 RMK A01 T10221029  RH  095%=      5-min Rain = 0
KFL1 090003Z 19004KT M02/M03 A3029 RMK A01 T10231029  RH  095%=      5-min Rain = 0
KFL1 090004Z 19006KT M02/M03 A3029 RMK A01 T10231029  RH  096%=      5-min Rain = 0
KFL1 090005Z 19005KT M02/M03 A3029 RMK A01 T10221028  RH  096%=      5-min Rain = 0
KFL1 090006Z 19005KT M02/M03 A3029 RMK A01 T10221028  RH  096%=      5-min Rain = 0
KFL1 090007Z 19006KT M02/M03 A3029 RMK A01 T10231028  RH  096%=      5-min Rain = 0
KFL1 090008Z 20005KT M02/M03 A3029 RMK A01 T10231027  RH  097%=      5-min Rain = 0
KFL1 090009Z 20005KT M02/M03 A3029 RMK A01 T10231028  RH  096%=      5-min Rain = 0
KFL1 090010Z 21005KT M02/M03 A3029 RMK A01 T10231028  RH  096%=      5-min Rain = 0
KFL1 090011Z 21005KT M02/M03 A3029 RMK A01 T10221027  RH  097%=      5-min Rain = 0
KFL1 090012Z 21005KT M03/M03 A3029 RMK A01 T10251030  RH  097%=      5-min Rain = 0
KFL1 090013Z 21006KT M03/M03 A303 RMK A01 T10251030  RH  097%=      5-min Rain = 0
KFL1 090014Z 22005KT M03/M03 A303 RMK A01 T10261030  RH  097%=      5-min Rain = 0
KFL1 090015Z 22005KT M03/M03 A303 RMK A01 T10261031  RH  097%=      5-min Rain = 0
KFL1 090016Z 22005KT M03/M04 A303 RMK A01 T10291035  RH  096%=      5-min Rain = 0
KFL1 090017Z 22005KT M03/M04 A303 RMK A01 T10331040  RH  095%=      5-min Rain = 0
KFL1 090018Z 23006KT M03/M04 A303 RMK A01 T10331040  RH  095%=      5-min Rain = 0
KFL1 090019Z 23006KT M03/M04 A303 RMK A01 T10341041  RH  095%=      5-min Rain = 0
KFL1 090020Z 23006KT M04/M04 A303 RMK A01 T10361043  RH  095%=      5-min Rain = 0
KFL1 090021Z 24005KT M04/M04 A303 RMK A01 T10371042  RH  096%=      5-min Rain = 0
KFL1 090022Z 23006KT M04/M04 A303 RMK A01 T10361041  RH  096%=      5-min Rain = 0
KFL1 090023Z 24005KT M04/M04 A303 RMK A01 T10351040  RH  097%=      5-min Rain = 0
KFL1 090024Z 25006KT M04/M04 A303 RMK A01 T10371042  RH  097%=      5-min Rain = 0
KFL1 090025Z 25006KT M04/M04 A303 RMK A01 T10371041  RH  097%=      5-min Rain = 0
KFL1 090026Z 25006KT M04/M04 A303 RMK A01 T10381041  RH  097%=      5-min Rain = 0
KFL1 090027Z 26005KT M04/M04 A303 RMK A01 T10371040  RH  098%=      5-min Rain = 0
KFL1 090028Z 27005KT M04/M04 A303 RMK A01 T10351038  RH  098%=      5-min Rain = 0
KFL1 090029Z 27005KT M03/M04 A303 RMK A01 T10341037  RH  098%=      5-min Rain = 0
KFL1 090030Z 27005KT M03/M04 A303 RMK A01 T10331036  RH  098%=      5-min Rain = 0
KFL1 090031Z 28005KT M03/M03 A303 RMK A01 T10311033  RH  098%=      5-min Rain = 0
KFL1 090032Z 29006KT M03/M03 A303 RMK A01 T10291031  RH  098%=      5-min Rain = 0
KFL1 090033Z 29006KT M03/M03 A303 RMK A01 T10271030  RH  098%=      5-min Rain = 0
KFL1 090034Z 30009KT M03/M03 A303 RMK A01 T10281031  RH  098%=      5-min Rain = 0
KFL1 090035Z 31009KT M03/M03 A303 RMK A01 T10291033  RH  097%=      5-min Rain = 0
KFL1 090036Z 31008KT M03/M03 A303 RMK A01 T10261030  RH  097%=      5-min Rain = 0
KFL1 090037Z 29008KT M02/M03 A303 RMK A01 T10231029  RH  096%=      5-min Rain = 0
KFL1 090038Z 29004KT M02/M03 A303 RMK A01 T10231032  RH  094%=      5-min Rain = 0
KFL1 090039Z 27003KT M02/M04 A303 RMK A01 T10241036  RH  092%=      5-min Rain = 0
KFL1 090040Z 28003KT M03/M04 A303 RMK A01 T10251037  RH  091%=      5-min Rain = 0
KFL1 090041Z 29004KT M03/M04 A303 RMK A01 T10261039  RH  091%=      5-min Rain = 0
KFL1 090042Z 28004KT M03/M04 A303 RMK A01 T10281041  RH  091%=      5-min Rain = 0
KFL1 090043Z 29005KT M03/M04 A303 RMK A01 T10291042  RH  091%=      5-min Rain = 0
KFL1 090044Z 30005KT M03/M04 A303 RMK A01 T10291038  RH  094%=      5-min Rain = 0
KFL1 090045Z 29006KT M03/M04 A303 RMK A01 T10261035  RH  094%=      5-min Rain = 0
KFL1 090046Z 28005KT M03/M04 A303 RMK A01 T10271037  RH  093%=      5-min Rain = 0
KFL1 090047Z 29004KT M03/M04 A303 RMK A01 T10251036  RH  093%=      5-min Rain = 0
KFL1 090048Z 30005KT M02/M04 A303 RMK A01 T10241035  RH  092%=      5-min Rain = 0
KFL1 090049Z 29006KT M03/M04 A303 RMK A01 T10251037  RH  091%=      5-min Rain = 0
KFL1 090050Z 29005KT M02/M03 A303 RMK A01 T10221034  RH  092%=      5-min Rain = 0
KFL1 090051Z 29005KT M02/M03 A303 RMK A01 T10211033  RH  091%=      5-min Rain = 0
KFL1 090052Z 28004KT M02/M03 A303 RMK A01 T10191034  RH  090%=      5-min Rain = 0
KFL1 090053Z 27002KT M02/M04 A303 RMK A01 T10221039  RH  088%=      5-min Rain = 0
KFL1 090054Z 29002KT M02/M04 A303 RMK A01 T10231041  RH  088%=      5-min Rain = 0
KFL1 090055Z 15001KT M03/M04 A303 RMK A01 T10251041  RH  089%=      5-min Rain = 0
KFL1 090056Z 08003KT M03/M04 A303 RMK A01 T10291043  RH  090%=      5-min Rain = 0
KFL1 090057Z 06004KT M03/M05 A303 RMK A01 T10321045  RH  091%=      5-min Rain = 0
KFL1 090058Z 07004KT M03/M05 A303 RMK A01 T10341045  RH  092%=      5-min Rain = 0
KFL1 090059Z 08005KT M04/M04 A303 RMK A01 T10351043  RH  094%=      5-min Rain = 0
KFL1 090100Z 09004KT M04/M05 A303 RMK A01 T10371045  RH  094%=      5-min Rain = 0
KFL1 090101Z 10004KT M04/M05 A3031 RMK A01 T10381046  RH  095%=      5-min Rain = 0
KFL1 090102Z 10004KT M04/M04 A3031 RMK A01 T10361042  RH  096%=      5-min Rain = 0
KFL1 090103Z 09004KT M04/M04 A3031 RMK A01 T10351039  RH  097%=      5-min Rain = 0
KFL1 090104Z 08004KT M04/M04 A3031 RMK A01 T10351039  RH  097%=      5-min Rain = 0
KFL1 090105Z 08004KT M04/M04 A3031 RMK A01 T10361040  RH  097%=      5-min Rain = 0
KFL1 090106Z 10003KT M04/M04 A3031 RMK A01 T10351039  RH  097%=      5-min Rain = 0
KFL1 090107Z 11003KT M04/M04 A3031 RMK A01 T10351039  RH  097%=      5-min Rain = 0
KFL1 090108Z 10003KT M04/M04 A3031 RMK A01 T10351038  RH  098%=      5-min Rain = 0
KFL1 090109Z 07004KT M03/M04 A3031 RMK A01 T10331035  RH  098%=      5-min Rain = 0
KFL1 090110Z 05004KT M03/M04 A3031 RMK A01 T10331036  RH  098%=      5-min Rain = 0
KFL1 090111Z 07004KT M03/M04 A3031 RMK A01 T10331036  RH  098%=      5-min Rain = 0
KFL1 090112Z 09004KT M03/M04 A3031 RMK A01 T10341037  RH  098%=      5-min Rain = 0
KFL1 090113Z 10003KT M04/M04 A3031 RMK A01 T10351038  RH  098%=      5-min Rain = 0
KFL1 090114Z 09003KT M04/M04 A3031 RMK A01 T10351038  RH  098%=      5-min Rain = 0
KFL1 090115Z 09003KT M04/M04 A3031 RMK A01 T10351038  RH  098%=      5-min Rain = 0
KFL1 090116Z 07003KT M03/M04 A3031 RMK A01 T10341037  RH  098%=      5-min Rain = 0
KFL1 090117Z 04004KT M04/M04 A3031 RMK A01 T10361038  RH  098%=      5-min Rain = 0
KFL1 090118Z 05005KT M04/M04 A3032 RMK A01 T10361038  RH  098%=      5-min Rain = 0
KFL1 090119Z 08005KT M04/M04 A3031 RMK A01 T10351038  RH  098%=      5-min Rain = 0
KFL1 090120Z 07005KT M04/M04 A3031 RMK A01 T10351038  RH  098%=      5-min Rain = 0
KFL1 090121Z 06004KT M04/M04 A3031 RMK A01 T10351038  RH  098%=      5-min Rain = 0
KFL1 090122Z 05005KT M04/M04 A3031 RMK A01 T10351037  RH  098%=      5-min Rain = 0
KFL1 090123Z 06005KT M04/M04 A3031 RMK A01 T10361039  RH  098%=      5-min Rain = 0
KFL1 090124Z 06005KT M04/M04 A3031 RMK A01 T10351038  RH  098%=      5-min Rain = 0
KFL1 090125Z 07006KT M04/M04 A3031 RMK A01 T10351038  RH  098%=      5-min Rain = 0
KFL1 090126Z 08005KT M04/M04 A3031 RMK A01 T10361039  RH  098%=      5-min Rain = 0
KFL1 090127Z 07005KT M04/M04 A3031 RMK A01 T10381041  RH  098%=      5-min Rain = 0
KFL1 090128Z 07006KT M04/M04 A3031 RMK A01 T10391042  RH  098%=      5-min Rain = 0
KFL1 090129Z 07005KT M04/M04 A3031 RMK A01 T10401043  RH  097%=      5-min Rain = 0
KFL1 090130Z 07006KT M04/M04 A3031 RMK A01 T10401044  RH  097%=      5-min Rain = 0
KFL1 090131Z 07005KT M04/M04 A3032 RMK A01 T10401044  RH  097%=      5-min Rain = 0
KFL1 090132Z 08006KT M04/M04 A3032 RMK A01 T10411044  RH  098%=      5-min Rain = 0
KFL1 090133Z 08005KT M04/M04 A3032 RMK A01 T10411044  RH  098%=      5-min Rain = 0
KFL1 090134Z 08005KT M04/M04 A3032 RMK A01 T10411044  RH  098%=      5-min Rain = 0
KFL1 090135Z 07005KT M04/M04 A3032 RMK A01 T10411044  RH  098%=      5-min Rain = 0
KFL1 090136Z 08005KT M04/M04 A3032 RMK A01 T10411043  RH  098%=      5-min Rain = 0
KFL1 090137Z 07005KT M04/M04 A3032 RMK A01 T10401042  RH  099%=      5-min Rain = 0
KFL1 090138Z 08006KT M04/M04 A3032 RMK A01 T10391041  RH  099%=      5-min Rain = 0
KFL1 090139Z 09006KT M04/M04 A3032 RMK A01 T10381040  RH  099%=      5-min Rain = 0
KFL1 090140Z 08005KT M04/M04 A3032 RMK A01 T10381040  RH  099%=      5-min Rain = 0
KFL1 090141Z 07006KT M04/M04 A3032 RMK A01 T10371038  RH  099%=      5-min Rain = 0
KFL1 090142Z 07005KT M04/M04 A3032 RMK A01 T10381040  RH  099%=      5-min Rain = 0
KFL1 090143Z 07006KT M04/M04 A3032 RMK A01 T10391040  RH  099%=      5-min Rain = 0
KFL1 090144Z 07005KT M04/M04 A3032 RMK A01 T10371039  RH  099%=      5-min Rain = 0
KFL1 090145Z 07005KT M04/M04 A3032 RMK A01 T10361037  RH  099%=      5-min Rain = 0
KFL1 090146Z 08005KT M03/M04 A3032 RMK A01 T10341035  RH  099%=      5-min Rain = 0
KFL1 090147Z 08006KT M03/M03 A3032 RMK A01 T10331034  RH  099%=      5-min Rain = 0
KFL1 090148Z 08005KT M03/M03 A3032 RMK A01 T10321033  RH  099%=      5-min Rain = 0
KFL1 090149Z 07005KT M03/M03 A3032 RMK A01 T10321033  RH  099%=      5-min Rain = 0
KFL1 090150Z 07005KT M03/M03 A3032 RMK A01 T10321032  RH  099%=      5-min Rain = 0
KFL1 090151Z 07005KT M03/M03 A3032 RMK A01 T10301031  RH  100%=      5-min Rain = 0
KFL1 090152Z 07004KT M03/M03 A3032 RMK A01 T10301031  RH  100%=      5-min Rain = 0
KFL1 090153Z 07005KT M03/M03 A3032 RMK A01 T10301031  RH  100%=      5-min Rain = 0
KFL1 090154Z 06005KT M03/M03 A3032 RMK A01 T10291030  RH  100%=      5-min Rain = 0
KFL1 090155Z 06005KT M03/M03 A3032 RMK A01 T10291029  RH  100%=      5-min Rain = 0
KFL1 090156Z 07004KT M03/M03 A3032 RMK A01 T10271028  RH  100%=      5-min Rain = 0
KFL1 090157Z 07004KT M03/M03 A3032 RMK A01 T10281029  RH  100%=      5-min Rain = 0
KFL1 090158Z 07003KT M03/M03 A3032 RMK A01 T10271028  RH  100%=      5-min Rain = 0
KFL1 090159Z 07003KT M03/M03 A3032 RMK A01 T10271027  RH  100%=      5-min Rain = 0
KFL1 090200Z 07004KT M03/M03 A3032 RMK A01 T10271027  RH  100%=      5-min Rain = 0
KFL1 090201Z 06004KT M03/M03 A3032 RMK A01 T10271027  RH  100%=      5-min Rain = 0
KFL1 090202Z 06003KT M03/M03 A3032 RMK A01 T10261027  RH  100%=      5-min Rain = 0
KFL1 090203Z 07004KT M03/M03 A3032 RMK A01 T10251025  RH  100%=      5-min Rain = 0
KFL1 090204Z 06002KT M03/M03 A3032 RMK A01 T10261027  RH  100%=      5-min Rain = 0
KFL1 090205Z 07003KT M03/M03 A3032 RMK A01 T10261027  RH  100%=      5-min Rain = 0
KFL1 090206Z 07004KT M03/M03 A3032 RMK A01 T10251026  RH  100%=      5-min Rain = 0
KFL1 090207Z 07004KT M03/M03 A3032 RMK A01 T10261026  RH  100%=      5-min Rain = 0
KFL1 090208Z 07003KT M03/M03 A3032 RMK A01 T10261027  RH  100%=      5-min Rain = 0
KFL1 090209Z 08004KT M03/M03 A3032 RMK A01 T10261026  RH  100%=      5-min Rain = 0
KFL1 090210Z 07003KT M03/M03 A3032 RMK A01 T10251025  RH  100%=      5-min Rain = 0
KFL1 090211Z 07004KT M03/M03 A3032 RMK A01 T10251026  RH  100%=      5-min Rain = 0
KFL1 090212Z 07003KT M03/M03 A3032 RMK A01 T10261027  RH  100%=      5-min Rain = 0
KFL1 090213Z 05003KT M03/M03 A3033 RMK A01 T10271027  RH  100%=      5-min Rain = 0
KFL1 090214Z 07004KT M03/M03 A3033 RMK A01 T10251025  RH  100%=      5-min Rain = 0
KFL1 090215Z 08005KT M02/M03 A3033 RMK A01 T10241025  RH  100%=      5-min Rain = 0
KFL1 090216Z 07002KT M03/M03 A3033 RMK A01 T10251025  RH  100%=      5-min Rain = 0
KFL1 090217Z 06002KT M02/M03 A3033 RMK A01 T10241025  RH  100%=      5-min Rain = 0
KFL1 090218Z 05002KT M03/M03 A3033 RMK A01 T10261026  RH  100%=      5-min Rain = 0
KFL1 090219Z 05003KT M02/M02 A3033 RMK A01 T10231024  RH  100%=      5-min Rain = 0
KFL1 090220Z 06004KT M03/M03 A3033 RMK A01 T10251026  RH  100%=      5-min Rain = 0
KFL1 090221Z 07003KT M03/M03 A3033 RMK A01 T10261026  RH  100%=      5-min Rain = 0
KFL1 090222Z 07003KT M03/M03 A3033 RMK A01 T10261027  RH  099%=      5-min Rain = 0
KFL1 090223Z 07003KT M02/M02 A3033 RMK A01 T10241024  RH  100%=      5-min Rain = 0
KFL1 090224Z 07004KT M02/M03 A3033 RMK A01 T10241025  RH  099%=      5-min Rain = 0
KFL1 090225Z 08004KT M03/M03 A3033 RMK A01 T10251026  RH  099%=      5-min Rain = 0
KFL1 090226Z 08005KT M02/M03 A3033 RMK A01 T10241025  RH  099%=      5-min Rain = 0
KFL1 090227Z 08005KT M02/M03 A3033 RMK A01 T10241025  RH  099%=      5-min Rain = 0
KFL1 090228Z 09003KT M02/M03 A3033 RMK A01 T10241025  RH  099%=      5-min Rain = 0
KFL1 090229Z 10003KT M02/M03 A3033 RMK A01 T10241026  RH  099%=      5-min Rain = 0
KFL1 090230Z 10003KT M03/M03 A3033 RMK A01 T10251026  RH  099%=      5-min Rain = 0
KFL1 090231Z 10003KT M02/M03 A3033 RMK A01 T10241026  RH  099%=      5-min Rain = 0
KFL1 090232Z 10003KT M02/M03 A3033 RMK A01 T10241026  RH  099%=      5-min Rain = 0
KFL1 090233Z 10003KT M02/M03 A3033 RMK A01 T10241026  RH  099%=      5-min Rain = 0
KFL1 090234Z 10002KT M02/M03 A3033 RMK A01 T10231025  RH  099%=      5-min Rain = 0
KFL1 090235Z 09003KT M03/M03 A3033 RMK A01 T10251027  RH  098%=      5-min Rain = 0
KFL1 090236Z 08003KT M02/M03 A3034 RMK A01 T10241027  RH  098%=      5-min Rain = 0
KFL1 090237Z 08003KT M02/M03 A3034 RMK A01 T10231026  RH  098%=      5-min Rain = 0
KFL1 090238Z 07003KT M02/M03 A3034 RMK A01 T10241027  RH  098%=      5-min Rain = 0
KFL1 090239Z 10002KT M02/M03 A3034 RMK A01 T10241027  RH  098%=      5-min Rain = 0
KFL1 090240Z 12002KT M03/M03 A3034 RMK A01 T10251028  RH  098%=      5-min Rain = 0
KFL1 090241Z 08001KT M03/M03 A3034 RMK A01 T10261029  RH  098%=      5-min Rain = 0
KFL1 090242Z 10002KT M03/M03 A3034 RMK A01 T10251028  RH  098%=      5-min Rain = 0
KFL1 090243Z 09002KT M03/M03 A3034 RMK A01 T10251028  RH  098%=      5-min Rain = 0
KFL1 090244Z 10002KT M02/M03 A3034 RMK A01 T10231026  RH  098%=      5-min Rain = 0
KFL1 090245Z 09002KT M03/M03 A3034 RMK A01 T10251028  RH  097%=      5-min Rain = 0
KFL1 090246Z 10003KT M03/M03 A3034 RMK A01 T10261029  RH  097%=      5-min Rain = 0
KFL1 090247Z 12004KT M03/M03 A3034 RMK A01 T10251029  RH  097%=      5-min Rain = 0
KFL1 090248Z 10004KT M03/M03 A3034 RMK A01 T10261030  RH  097%=      5-min Rain = 0
KFL1 090249Z 10003KT M03/M03 A3033 RMK A01 T10271031  RH  097%=      5-min Rain = 0
KFL1 090250Z 10005KT M03/M03 A3033 RMK A01 T10261030  RH  097%=      5-min Rain = 0
KFL1 090251Z 09004KT M03/M03 A3033 RMK A01 T10261030  RH  097%=      5-min Rain = 0
KFL1 090252Z 08004KT M03/M03 A3033 RMK A01 T10261030  RH  097%=      5-min Rain = 0
KFL1 090253Z 07003KT M03/M03 A3034 RMK A01 T10261031  RH  097%=      5-min Rain = 0
KFL1 090254Z 08003KT M03/M03 A3033 RMK A01 T10261031  RH  097%=      5-min Rain = 0
KFL1 090255Z 08002KT M03/M03 A3033 RMK A01 T10271032  RH  097%=      5-min Rain = 0
KFL1 090256Z 09002KT M03/M03 A3033 RMK A01 T10271031  RH  097%=      5-min Rain = 0
KFL1 090257Z 09002KT M03/M03 A3033 RMK A01 T10281032  RH  097%=      5-min Rain = 0
KFL1 090258Z 11003KT M03/M03 A3033 RMK A01 T10281032  RH  097%=      5-min Rain = 0
KFL1 090259Z 11003KT M03/M03 A3033 RMK A01 T10261031  RH  096%=      5-min Rain = 0
KFL1 090300Z 10001KT M03/M03 A3033 RMK A01 T10271032  RH  096%=      5-min Rain = 0
KFL1 090301Z 08002KT M03/M04 A3034 RMK A01 T10291035  RH  096%=      5-min Rain = 0
KFL1 090302Z 06002KT M03/M04 A3034 RMK A01 T10311037  RH  096%=      5-min Rain = 0
KFL1 090303Z 06004KT M03/M04 A3033 RMK A01 T10311037  RH  096%=      5-min Rain = 0
KFL1 090304Z 05003KT M03/M04 A3033 RMK A01 T10321038  RH  096%=      5-min Rain = 0
KFL1 090305Z 04003KT M03/M04 A3033 RMK A01 T10321038  RH  096%=      5-min Rain = 0
KFL1 090306Z 03004KT M03/M04 A3033 RMK A01 T10331038  RH  096%=      5-min Rain = 0
KFL1 090307Z 03003KT M03/M04 A3033 RMK A01 T10331038  RH  096%=      5-min Rain = 0
KFL1 090308Z 03004KT M04/M04 A3033 RMK A01 T10351041  RH  096%=      5-min Rain = 0
KFL1 090309Z 03004KT M04/M04 A3033 RMK A01 T10361043  RH  095%=      5-min Rain = 0
KFL1 090310Z 03005KT M04/M04 A3033 RMK A01 T10361043  RH  095%=      5-min Rain = 0
KFL1 090311Z 04005KT M04/M04 A3034 RMK A01 T10371044  RH  095%=      5-min Rain = 0
KFL1 090312Z 03004KT M04/M04 A3033 RMK A01 T10371044  RH  095%=      5-min Rain = 0
KFL1 090313Z 04004KT M04/M04 A3033 RMK A01 T10381044  RH  095%=      5-min Rain = 0
KFL1 090314Z 05004KT M04/M05 A3033 RMK A01 T10381045  RH  095%=      5-min Rain = 0
KFL1 090315Z 04004KT M04/M05 A3033 RMK A01 T10381046  RH  095%=      5-min Rain = 0
KFL1 090316Z 04005KT M04/M05 A3033 RMK A01 T10391046  RH  095%=      5-min Rain = 0
KFL1 090317Z 04006KT M04/M05 A3033 RMK A01 T10401047  RH  095%=      5-min Rain = 0
KFL1 090318Z 03007KT M04/M05 A3033 RMK A01 T10411048  RH  094%=      5-min Rain = 0
KFL1 090319Z 03006KT M04/M05 A3033 RMK A01 T10421049  RH  094%=      5-min Rain = 0
KFL1 090320Z 03006KT M04/M05 A3033 RMK A01 T10411048  RH  095%=      5-min Rain = 0
KFL1 090321Z 03006KT M04/M05 A3033 RMK A01 T10411048  RH  095%=      5-min Rain = 0
KFL1 090322Z 03006KT M04/M05 A3033 RMK A01 T10411048  RH  094%=      5-min Rain = 0
KFL1 090323Z 04005KT M04/M05 A3033 RMK A01 T10411049  RH  095%=      5-min Rain = 0
KFL1 090324Z 03004KT M04/M05 A3033 RMK A01 T10411047  RH  095%=      5-min Rain = 0
KFL1 090325Z 04005KT M04/M05 A3033 RMK A01 T10421049  RH  095%=      5-min Rain = 0
KFL1 090326Z 04004KT M04/M05 A3033 RMK A01 T10421049  RH  095%=      5-min Rain = 0
KFL1 090327Z 02004KT M04/M05 A3033 RMK A01 T10421050  RH  095%=      5-min Rain = 0
KFL1 090328Z 02006KT M04/M05 A3033 RMK A01 T10441052  RH  094%=      5-min Rain = 0
KFL1 090329Z 02006KT M05/M05 A3033 RMK A01 T10451054  RH  093%=      5-min Rain = 0
KFL1 090330Z 02007KT M05/M06 A3033 RMK A01 T10471056  RH  093%=      5-min Rain = 0
KFL1 090331Z 01007KT M05/M06 A3033 RMK A01 T10511062  RH  092%=      5-min Rain = 0
KFL1 090332Z 01007KT M06/M07 A3033 RMK A01 T10571072  RH  089%=      5-min Rain = 0
KFL1 090333Z 02007KT M06/M07 A3033 RMK A01 T10601074  RH  090%=      5-min Rain = 0
KFL1 090334Z 02006KT M06/M07 A3033 RMK A01 T10591069  RH  093%=      5-min Rain = 0
KFL1 090335Z 02005KT M06/M07 A3033 RMK A01 T10581065  RH  095%=      5-min Rain = 0
KFL1 090336Z 03005KT M06/M06 A3033 RMK A01 T10551060  RH  096%=      5-min Rain = 0
KFL1 090337Z 03005KT M05/M06 A3033 RMK A01 T10521057  RH  097%=      5-min Rain = 0
KFL1 090338Z 03005KT M05/M06 A3033 RMK A01 T10511055  RH  097%=      5-min Rain = 0
KFL1 090339Z 03005KT M05/M05 A3033 RMK A01 T10471050  RH  098%=      5-min Rain = 0
KFL1 090340Z 04005KT M05/M05 A3033 RMK A01 T10471050  RH  098%=      5-min Rain = 0
KFL1 090341Z 03005KT M05/M05 A3033 RMK A01 T10471051  RH  097%=      5-min Rain = 0
KFL1 090342Z 02005KT M05/M05 A3033 RMK A01 T10451050  RH  097%=      5-min Rain = 0
KFL1 090343Z 02006KT M05/M05 A3033 RMK A01 T10471052  RH  096%=      5-min Rain = 0
KFL1 090344Z 01008KT M05/M06 A3033 RMK A01 T10481055  RH  095%=      5-min Rain = 0
KFL1 090345Z 02008KT M05/M06 A3033 RMK A01 T10541064  RH  092%=      5-min Rain = 0
KFL1 090346Z 02008KT M06/M07 A3033 RMK A01 T10581070  RH  091%=      5-min Rain = 0
KFL1 090347Z 02008KT M06/M07 A3033 RMK A01 T10611072  RH  091%=      5-min Rain = 0
KFL1 090348Z 02008KT M06/M08 A3033 RMK A01 T10641075  RH  092%=      5-min Rain = 0
KFL1 090349Z 01008KT M07/M07 A3033 RMK A01 T10651074  RH  093%=      5-min Rain = 0
KFL1 090350Z 01008KT M07/M08 A3033 RMK A01 T10661076  RH  093%=      5-min Rain = 0
KFL1 090351Z 02007KT M07/M08 A3033 RMK A01 T10671076  RH  093%=      5-min Rain = 0
KFL1 090352Z 03008KT M06/M07 A3033 RMK A01 T10641071  RH  095%=      5-min Rain = 0
KFL1 090353Z 03007KT M06/M07 A3033 RMK A01 T10601065  RH  096%=      5-min Rain = 0
KFL1 090354Z 03006KT M06/M06 A3033 RMK A01 T10571061  RH  097%=      5-min Rain = 0
KFL1 090355Z 03006KT M06/M06 A3033 RMK A01 T10561060  RH  097%=      5-min Rain = 0
KFL1 090356Z 02008KT M05/M06 A3033 RMK A01 T10531057  RH  097%=      5-min Rain = 0
KFL1 090357Z 03008KT M05/M06 A3033 RMK A01 T10521055  RH  097%=      5-min Rain = 0
KFL1 090358Z 03007KT M05/M05 A3033 RMK A01 T10501053  RH  097%=      5-min Rain = 0
KFL1 090359Z 03006KT M05/M05 A3033 RMK A01 T10481052  RH  097%=      5-min Rain = 0
KFL1 090400Z 03004KT M05/M05 A3033 RMK A01 T10471052  RH  097%=      5-min Rain = 0
KFL1 090401Z 03005KT M05/M05 A3033 RMK A01 T10471052  RH  096%=      5-min Rain = 0
KFL1 090402Z 03005KT M05/M05 A3034 RMK A01 T10471054  RH  095%=      5-min Rain = 0
KFL1 090403Z 03005KT M05/M06 A3034 RMK A01 T10501058  RH  094%=      5-min Rain = 0
KFL1 090404Z 03005KT M05/M06 A3033 RMK A01 T10511059  RH  094%=      5-min Rain = 0
KFL1 090405Z 03005KT M05/M06 A3033 RMK A01 T10501058  RH  094%=      5-min Rain = 0
KFL1 090406Z 03005KT M05/M06 A3033 RMK A01 T10501058  RH  095%=      5-min Rain = 0
KFL1 090407Z 03005KT M05/M06 A3033 RMK A01 T10501057  RH  095%=      5-min Rain = 0
KFL1 090408Z 02006KT M05/M06 A3033 RMK A01 T10491056  RH  095%=      5-min Rain = 0
KFL1 090409Z 02007KT M05/M06 A3033 RMK A01 T10491056  RH  095%=      5-min Rain = 0
KFL1 090410Z 02006KT M05/M06 A3033 RMK A01 T10491056  RH  095%=      5-min Rain = 0
KFL1 090411Z 04004KT M05/M06 A3033 RMK A01 T10511062  RH  092%=      5-min Rain = 0
KFL1 090412Z 03004KT M06/M07 A3033 RMK A01 T10551069  RH  090%=      5-min Rain = 0
KFL1 090413Z 02005KT M06/M07 A3033 RMK A01 T10571071  RH  090%=      5-min Rain = 0
KFL1 090414Z 01007KT M06/M08 A3033 RMK A01 T10611076  RH  090%=      5-min Rain = 0
KFL1 090415Z 02007KT M07/M08 A3033 RMK A01 T10661080  RH  089%=      5-min Rain = 0
KFL1 090416Z 02007KT M07/M09 A3033 RMK A01 T10691085  RH  089%=      5-min Rain = 0
KFL1 090417Z 03006KT M07/M09 A3033 RMK A01 T10731090  RH  088%=      5-min Rain = 0
KFL1 090418Z 02007KT M08/M09 A3033 RMK A01 T10761091  RH  089%=      5-min Rain = 0
KFL1 090419Z 02007KT M08/M09 A3034 RMK A01 T10751085  RH  092%=      5-min Rain = 0
KFL1 090420Z 01007KT M08/M09 A3034 RMK A01 T10791090  RH  092%=      5-min Rain = 0
KFL1 090421Z 00007KT M08/M10 A3034 RMK A01 T10831096  RH  090%=      5-min Rain = 0
KFL1 090422Z 00007KT M09/M10 A3034 RMK A01 T10851098  RH  091%=      5-min Rain = 0
KFL1 090423Z 01007KT M09/M10 A3034 RMK A01 T10851095  RH  093%=      5-min Rain = 0
KFL1 090424Z 01006KT M08/M08 A3034 RMK A01 T10771083  RH  096%=      5-min Rain = 0
KFL1 090425Z 03006KT M07/M08 A3034 RMK A01 T10731078  RH  097%=      5-min Rain = 0
KFL1 090426Z 03005KT M07/M08 A3034 RMK A01 T10721076  RH  097%=      5-min Rain = 0
KFL1 090427Z 02005KT M07/M07 A3034 RMK A01 T10671070  RH  098%=      5-min Rain = 0
KFL1 090428Z 02006KT M07/M07 A3034 RMK A01 T10651068  RH  098%=      5-min Rain = 0
KFL1 090429Z 02006KT M07/M07 A3034 RMK A01 T10671071  RH  097%=      5-min Rain = 0
KFL1 090430Z 05005KT M07/M07 A3034 RMK A01 T10681073  RH  096%=      5-min Rain = 0
KFL1 090431Z 04005KT M07/M07 A3034 RMK A01 T10671073  RH  096%=      5-min Rain = 0
KFL1 090432Z 03005KT M07/M07 A3034 RMK A01 T10661070  RH  097%=      5-min Rain = 0
KFL1 090433Z 03006KT M06/M07 A3034 RMK A01 T10631067  RH  097%=      5-min Rain = 0
KFL1 090434Z 03006KT M06/M06 A3034 RMK A01 T10611064  RH  098%=      5-min Rain = 0
KFL1 090435Z 03005KT M06/M06 A3034 RMK A01 T10601063  RH  098%=      5-min Rain = 0
KFL1 090436Z 03005KT M06/M06 A3034 RMK A01 T10581062  RH  098%=      5-min Rain = 0
KFL1 090437Z 03005KT M06/M06 A3034 RMK A01 T10571061  RH  097%=      5-min Rain = 0
KFL1 090438Z 03005KT M06/M06 A3034 RMK A01 T10581062  RH  097%=      5-min Rain = 0
KFL1 090439Z 02005KT M06/M07 A3034 RMK A01 T10591065  RH  096%=      5-min Rain = 0
KFL1 090440Z 02005KT M07/M08 A3034 RMK A01 T10691083  RH  090%=      5-min Rain = 0
KFL1 090441Z 02006KT M08/M09 A3034 RMK A01 T10771094  RH  088%=      5-min Rain = 0
KFL1 090442Z 03006KT M08/M10 A3034 RMK A01 T10841101  RH  087%=      5-min Rain = 0
KFL1 090443Z 03006KT M09/M10 A3034 RMK A01 T10871102  RH  089%=      5-min Rain = 0
KFL1 090444Z 02005KT M08/M09 A3034 RMK A01 T10811090  RH  093%=      5-min Rain = 0
KFL1 090445Z 02006KT M08/M08 A3034 RMK A01 T10751081  RH  096%=      5-min Rain = 0
KFL1 090446Z 02006KT M08/M08 A3034 RMK A01 T10761081  RH  096%=      5-min Rain = 0
KFL1 090447Z 03006KT M08/M08 A3034 RMK A01 T10751080  RH  097%=      5-min Rain = 0
KFL1 090448Z 03004KT M07/M08 A3034 RMK A01 T10731077  RH  097%=      5-min Rain = 0
KFL1 090449Z 02003KT M07/M07 A3034 RMK A01 T10681071  RH  098%=      5-min Rain = 0
KFL1 090450Z 02004KT M07/M07 A3034 RMK A01 T10681071  RH  098%=      5-min Rain = 0
KFL1 090451Z 02004KT M07/M08 A3034 RMK A01 T10721077  RH  096%=      5-min Rain = 0
KFL1 090452Z 02005KT M08/M08 A3034 RMK A01 T10761084  RH  094%=      5-min Rain = 0
KFL1 090453Z 03005KT M08/M09 A3034 RMK A01 T10791088  RH  093%=      5-min Rain = 0
KFL1 090454Z 03005KT M08/M09 A3034 RMK A01 T10821091  RH  093%=      5-min Rain = 0
KFL1 090455Z 02005KT M08/M09 A3034 RMK A01 T10811088  RH  094%=      5-min Rain = 0
KFL1 090456Z 01005KT M08/M08 A3034 RMK A01 T10781084  RH  096%=      5-min Rain = 0
KFL1 090457Z 02005KT M08/M08 A3034 RMK A01 T10771082  RH  096%=      5-min Rain = 0
KFL1 090458Z 03006KT M08/M08 A3034 RMK A01 T10761081  RH  096%=      5-min Rain = 0
KFL1 090459Z 03007KT M08/M08 A3034 RMK A01 T10771082  RH  096%=      5-min Rain = 0
KFL1 090500Z 03007KT M08/M09 A3034 RMK A01 T10801086  RH  095%=      5-min Rain = 0
KFL1 090501Z 03006KT M08/M09 A3034 RMK A01 T10801087  RH  095%=      5-min Rain = 0
KFL1 090502Z 03007KT M08/M09 A3034 RMK A01 T10811088  RH  095%=      5-min Rain = 0
KFL1 090503Z 03007KT M08/M09 A3034 RMK A01 T10831091  RH  094%=      5-min Rain = 0
KFL1 090504Z 03007KT M08/M09 A3034 RMK A01 T10831089  RH  095%=      5-min Rain = 0
KFL1 090505Z 03007KT M08/M09 A3034 RMK A01 T10801086  RH  096%=      5-min Rain = 0
KFL1 090506Z 03007KT M08/M08 A3034 RMK A01 T10751079  RH  097%=      5-min Rain = 0
KFL1 090507Z 03007KT M07/M07 A3034 RMK A01 T10701072  RH  098%=      5-min Rain = 0
KFL1 090508Z 03006KT M07/M07 A3034 RMK A01 T10701073  RH  098%=      5-min Rain = 0
KFL1 090509Z 03007KT M07/M07 A3034 RMK A01 T10691072  RH  098%=      5-min Rain = 0
KFL1 090510Z 03007KT M07/M07 A3034 RMK A01 T10671070  RH  098%=      5-min Rain = 0
KFL1 090511Z 03006KT M07/M07 A3034 RMK A01 T10661069  RH  098%=      5-min Rain = 0
KFL1 090512Z 03007KT M07/M07 A3034 RMK A01 T10691074  RH  096%=      5-min Rain = 0
KFL1 090513Z 03007KT M07/M08 A3034 RMK A01 T10701077  RH  095%=      5-min Rain = 0
KFL1 090514Z 03006KT M07/M08 A3035 RMK A01 T10711077  RH  095%=      5-min Rain = 0
KFL1 090515Z 03006KT M07/M08 A3035 RMK A01 T10701076  RH  096%=      5-min Rain = 0
KFL1 090516Z 04005KT M07/M08 A3035 RMK A01 T10701076  RH  095%=      5-min Rain = 0
KFL1 090517Z 04005KT M07/M08 A3035 RMK A01 T10711078  RH  095%=      5-min Rain = 0
KFL1 090518Z 03005KT M07/M08 A3035 RMK A01 T10701076  RH  095%=      5-min Rain = 0
KFL1 090519Z 03005KT M07/M07 A3035 RMK A01 T10681073  RH  096%=      5-min Rain = 0
KFL1 090520Z 03005KT M07/M07 A3035 RMK A01 T10681073  RH  096%=      5-min Rain = 0
KFL1 090521Z 03006KT M07/M08 A3035 RMK A01 T10711079  RH  094%=      5-min Rain = 0
KFL1 090522Z 02006KT M08/M09 A3035 RMK A01 T10751085  RH  093%=      5-min Rain = 0
KFL1 090523Z 03006KT M08/M09 A3035 RMK A01 T10781089  RH  092%=      5-min Rain = 0
KFL1 090524Z 03006KT M08/M09 A3035 RMK A01 T10801092  RH  092%=      5-min Rain = 0
KFL1 090525Z 03007KT M09/M10 A3035 RMK A01 T10851097  RH  091%=      5-min Rain = 0
KFL1 090526Z 03006KT M09/M10 A3035 RMK A01 T10861099  RH  091%=      5-min Rain = 0
KFL1 090527Z 03006KT M09/M10 A3035 RMK A01 T10871098  RH  092%=      5-min Rain = 0
KFL1 090528Z 03006KT M09/M10 A3035 RMK A01 T10881098  RH  092%=      5-min Rain = 0
KFL1 090529Z 03006KT M09/M10 A3035 RMK A01 T10891099  RH  092%=      5-min Rain = 0
KFL1 090530Z 03006KT M09/M10 A3035 RMK A01 T10871096  RH  093%=      5-min Rain = 0
KFL1 090531Z 03006KT M08/M09 A3035 RMK A01 T10811087  RH  096%=      5-min Rain = 0
KFL1 090532Z 04005KT M07/M08 A3035 RMK A01 T10741078  RH  097%=      5-min Rain = 0
KFL1 090533Z 04004KT M07/M08 A3035 RMK A01 T10721075  RH  097%=      5-min Rain = 0
KFL1 090534Z 03004KT M07/M08 A3035 RMK A01 T10701075  RH  097%=      5-min Rain = 0
KFL1 090535Z 04005KT M07/M08 A3035 RMK A01 T10711075  RH  096%=      5-min Rain = 0
KFL1 090536Z 03004KT M07/M08 A3035 RMK A01 T10701075  RH  096%=      5-min Rain = 0
KFL1 090537Z 04005KT M07/M07 A3035 RMK A01 T10681073  RH  096%=      5-min Rain = 0
KFL1 090538Z 04006KT M07/M07 A3035 RMK A01 T10671072  RH  096%=      5-min Rain = 0
KFL1 090539Z 04007KT M07/M07 A3035 RMK A01 T10671073  RH  096%=      5-min Rain = 0
KFL1 090540Z 04006KT M07/M08 A3035 RMK A01 T10681075  RH  095%=      5-min Rain = 0
KFL1 090541Z 04006KT M07/M07 A3035 RMK A01 T10671074  RH  095%=      5-min Rain = 0
KFL1 090542Z 04005KT M07/M07 A3035 RMK A01 T10661074  RH  094%=      5-min Rain = 0
KFL1 090543Z 04006KT M06/M07 A3035 RMK A01 T10641071  RH  095%=      5-min Rain = 0
KFL1 090544Z 04005KT M06/M07 A3035 RMK A01 T10631070  RH  095%=      5-min Rain = 0
KFL1 090545Z 04005KT M06/M07 A3035 RMK A01 T10621069  RH  095%=      5-min Rain = 0
KFL1 090546Z 05004KT M06/M07 A3035 RMK A01 T10601067  RH  095%=      5-min Rain = 0
KFL1 090547Z 05005KT M06/M07 A3035 RMK A01 T10601067  RH  095%=      5-min Rain = 0
KFL1 090548Z 05005KT M06/M07 A3035 RMK A01 T10601066  RH  095%=      5-min Rain = 0
KFL1 090549Z 05005KT M06/M07 A3035 RMK A01 T10581065  RH  095%=      5-min Rain = 0
KFL1 090550Z 04005KT M06/M07 A3035 RMK A01 T10581066  RH  095%=      5-min Rain = 0
KFL1 090551Z 04005KT M06/M07 A3036 RMK A01 T10581066  RH  094%=      5-min Rain = 0
KFL1 090552Z 04005KT M06/M07 A3036 RMK A01 T10571065  RH  095%=      5-min Rain = 0
KFL1 090553Z 04004KT M06/M06 A3036 RMK A01 T10551061  RH  095%=      5-min Rain = 0
KFL1 090554Z 04004KT M06/M06 A3036 RMK A01 T10561063  RH  095%=      5-min Rain = 0
KFL1 090555Z 04004KT M06/M07 A3036 RMK A01 T10601069  RH  093%=      5-min Rain = 0
KFL1 090556Z 04003KT M06/M07 A3036 RMK A01 T10601070  RH  093%=      5-min Rain = 0
KFL1 090557Z 05002KT M06/M07 A3036 RMK A01 T10601068  RH  094%=      5-min Rain = 0
KFL1 090558Z 04003KT M06/M06 A3036 RMK A01 T10581064  RH  095%=      5-min Rain = 0
KFL1 090559Z 05003KT M06/M06 A3036 RMK A01 T10581064  RH  096%=      5-min Rain = 0

Page generated in 0.1209 seconds.